<?xml version="1.0" encoding="UTF-8" standalone="no" ?>
<gpx xmlns="http://www.topografix.com/GPX/1/1" xmlns:xsi="http://www.w3.org/2001/XMLSchema-instance" xsi:schemaLocation="http://www.topografix.com/GPX/1/1 http://www.topografix.com/GPX/1/1/gpx.xsd" version="1.1" creator="VisuGPX - https://www.visugpx.com">
  <metadata>
    <name>La Lauzière Crête de Peyra Plata</name>
  </metadata>
  <trk>
    <name><![CDATA[2023-04-16 18:19:08]]></name>
    <trkseg>
      <trkpt lat="44.81819" lon="6.94492">
        <ele>1761.27</ele>
        <time>2023-04-16T06:29:12Z</time>
      </trkpt>
      <trkpt lat="44.81803" lon="6.94503">
        <ele>1761.75</ele>
        <time>2023-04-16T06:29:34Z</time>
      </trkpt>
      <trkpt lat="44.81789" lon="6.94522">
        <ele>1762.23</ele>
        <time>2023-04-16T06:29:51Z</time>
      </trkpt>
      <trkpt lat="44.81779" lon="6.94542">
        <ele>1762.71</ele>
        <time>2023-04-16T06:30:08Z</time>
      </trkpt>
      <trkpt lat="44.81769" lon="6.94564">
        <ele>1763.2</ele>
        <time>2023-04-16T06:30:24Z</time>
      </trkpt>
      <trkpt lat="44.81757" lon="6.94587">
        <ele>1764.16</ele>
        <time>2023-04-16T06:30:42Z</time>
      </trkpt>
      <trkpt lat="44.81746" lon="6.94604">
        <ele>1765.12</ele>
        <time>2023-04-16T06:30:57Z</time>
      </trkpt>
      <trkpt lat="44.81736" lon="6.94621">
        <ele>1765.6</ele>
        <time>2023-04-16T06:31:12Z</time>
      </trkpt>
      <trkpt lat="44.81719" lon="6.94632">
        <ele>1767.52</ele>
        <time>2023-04-16T06:31:31Z</time>
      </trkpt>
      <trkpt lat="44.81706" lon="6.94639">
        <ele>1768.48</ele>
        <time>2023-04-16T06:31:46Z</time>
      </trkpt>
      <trkpt lat="44.81693" lon="6.94648">
        <ele>1769.44</ele>
        <time>2023-04-16T06:31:59Z</time>
      </trkpt>
      <trkpt lat="44.81675" lon="6.94665">
        <ele>1770.41</ele>
        <time>2023-04-16T06:32:21Z</time>
      </trkpt>
      <trkpt lat="44.81654" lon="6.94685">
        <ele>1771.85</ele>
        <time>2023-04-16T06:32:46Z</time>
      </trkpt>
      <trkpt lat="44.81642" lon="6.94705">
        <ele>1772.33</ele>
        <time>2023-04-16T06:33:04Z</time>
      </trkpt>
      <trkpt lat="44.81631" lon="6.94741">
        <ele>1772.81</ele>
        <time>2023-04-16T06:33:30Z</time>
      </trkpt>
      <trkpt lat="44.81614" lon="6.94765">
        <ele>1773.77</ele>
        <time>2023-04-16T06:33:54Z</time>
      </trkpt>
      <trkpt lat="44.81605" lon="6.94782">
        <ele>1774.73</ele>
        <time>2023-04-16T06:34:09Z</time>
      </trkpt>
      <trkpt lat="44.81596" lon="6.94802">
        <ele>1776.17</ele>
        <time>2023-04-16T06:34:26Z</time>
      </trkpt>
      <trkpt lat="44.81585" lon="6.94817">
        <ele>1777.61</ele>
        <time>2023-04-16T06:34:41Z</time>
      </trkpt>
      <trkpt lat="44.81575" lon="6.94835">
        <ele>1779.06</ele>
        <time>2023-04-16T06:34:57Z</time>
      </trkpt>
      <trkpt lat="44.81571" lon="6.94848">
        <ele>1779.54</ele>
        <time>2023-04-16T06:35:07Z</time>
      </trkpt>
      <trkpt lat="44.8157" lon="6.94865">
        <ele>1780.5</ele>
        <time>2023-04-16T06:35:20Z</time>
      </trkpt>
      <trkpt lat="44.81564" lon="6.94898">
        <ele>1781.94</ele>
        <time>2023-04-16T06:35:45Z</time>
      </trkpt>
      <trkpt lat="44.81557" lon="6.94919">
        <ele>1783.38</ele>
        <time>2023-04-16T06:36:01Z</time>
      </trkpt>
      <trkpt lat="44.81552" lon="6.94936">
        <ele>1784.34</ele>
        <time>2023-04-16T06:36:15Z</time>
      </trkpt>
      <trkpt lat="44.81552" lon="6.9495">
        <ele>1785.79</ele>
        <time>2023-04-16T06:36:28Z</time>
      </trkpt>
      <trkpt lat="44.81551" lon="6.94972">
        <ele>1786.75</ele>
        <time>2023-04-16T06:36:44Z</time>
      </trkpt>
      <trkpt lat="44.81549" lon="6.94997">
        <ele>1788.19</ele>
        <time>2023-04-16T06:37:02Z</time>
      </trkpt>
      <trkpt lat="44.81547" lon="6.95016">
        <ele>1788.67</ele>
        <time>2023-04-16T06:37:16Z</time>
      </trkpt>
      <trkpt lat="44.81543" lon="6.95038">
        <ele>1789.63</ele>
        <time>2023-04-16T06:37:32Z</time>
      </trkpt>
      <trkpt lat="44.8154" lon="6.95058">
        <ele>1791.07</ele>
        <time>2023-04-16T06:37:48Z</time>
      </trkpt>
      <trkpt lat="44.81539" lon="6.95071">
        <ele>1791.55</ele>
        <time>2023-04-16T06:37:58Z</time>
      </trkpt>
      <trkpt lat="44.81537" lon="6.95084">
        <ele>1792.52</ele>
        <time>2023-04-16T06:38:08Z</time>
      </trkpt>
      <trkpt lat="44.81534" lon="6.95104">
        <ele>1793.48</ele>
        <time>2023-04-16T06:38:22Z</time>
      </trkpt>
      <trkpt lat="44.81529" lon="6.95127">
        <ele>1794.44</ele>
        <time>2023-04-16T06:38:39Z</time>
      </trkpt>
      <trkpt lat="44.81528" lon="6.95144">
        <ele>1796.36</ele>
        <time>2023-04-16T06:38:53Z</time>
      </trkpt>
      <trkpt lat="44.81526" lon="6.95157">
        <ele>1797.32</ele>
        <time>2023-04-16T06:39:04Z</time>
      </trkpt>
      <trkpt lat="44.81517" lon="6.95171">
        <ele>1798.76</ele>
        <time>2023-04-16T06:39:19Z</time>
      </trkpt>
      <trkpt lat="44.81508" lon="6.95178">
        <ele>1800.21</ele>
        <time>2023-04-16T06:39:32Z</time>
      </trkpt>
      <trkpt lat="44.81491" lon="6.95193">
        <ele>1802.61</ele>
        <time>2023-04-16T06:39:57Z</time>
      </trkpt>
      <trkpt lat="44.8148" lon="6.95203">
        <ele>1803.57</ele>
        <time>2023-04-16T06:40:11Z</time>
      </trkpt>
      <trkpt lat="44.81472" lon="6.95215">
        <ele>1805.01</ele>
        <time>2023-04-16T06:40:24Z</time>
      </trkpt>
      <trkpt lat="44.81464" lon="6.95234">
        <ele>1805.97</ele>
        <time>2023-04-16T06:40:40Z</time>
      </trkpt>
      <trkpt lat="44.81461" lon="6.95246">
        <ele>1805.97</ele>
        <time>2023-04-16T06:40:50Z</time>
      </trkpt>
      <trkpt lat="44.81452" lon="6.95268">
        <ele>1806.94</ele>
        <time>2023-04-16T06:41:08Z</time>
      </trkpt>
      <trkpt lat="44.81437" lon="6.95281">
        <ele>1806.94</ele>
        <time>2023-04-16T06:41:27Z</time>
      </trkpt>
      <trkpt lat="44.81422" lon="6.95298">
        <ele>1806.94</ele>
        <time>2023-04-16T06:41:45Z</time>
      </trkpt>
      <trkpt lat="44.81412" lon="6.9531">
        <ele>1806.94</ele>
        <time>2023-04-16T06:41:56Z</time>
      </trkpt>
      <trkpt lat="44.81397" lon="6.95326">
        <ele>1807.42</ele>
        <time>2023-04-16T06:42:14Z</time>
      </trkpt>
      <trkpt lat="44.81385" lon="6.95346">
        <ele>1807.9</ele>
        <time>2023-04-16T06:42:31Z</time>
      </trkpt>
      <trkpt lat="44.81375" lon="6.95362">
        <ele>1808.86</ele>
        <time>2023-04-16T06:42:47Z</time>
      </trkpt>
      <trkpt lat="44.81358" lon="6.95381">
        <ele>1808.86</ele>
        <time>2023-04-16T06:43:07Z</time>
      </trkpt>
      <trkpt lat="44.81344" lon="6.95396">
        <ele>1809.34</ele>
        <time>2023-04-16T06:43:24Z</time>
      </trkpt>
      <trkpt lat="44.81331" lon="6.95413">
        <ele>1809.82</ele>
        <time>2023-04-16T06:43:40Z</time>
      </trkpt>
      <trkpt lat="44.81321" lon="6.95435">
        <ele>1809.82</ele>
        <time>2023-04-16T06:43:57Z</time>
      </trkpt>
      <trkpt lat="44.81313" lon="6.95458">
        <ele>1810.3</ele>
        <time>2023-04-16T06:44:14Z</time>
      </trkpt>
      <trkpt lat="44.81304" lon="6.95496">
        <ele>1810.78</ele>
        <time>2023-04-16T06:44:40Z</time>
      </trkpt>
      <trkpt lat="44.81298" lon="6.95526">
        <ele>1811.26</ele>
        <time>2023-04-16T06:45:00Z</time>
      </trkpt>
      <trkpt lat="44.81283" lon="6.9556">
        <ele>1811.74</ele>
        <time>2023-04-16T06:45:25Z</time>
      </trkpt>
      <trkpt lat="44.81272" lon="6.9558">
        <ele>1812.7</ele>
        <time>2023-04-16T06:45:42Z</time>
      </trkpt>
      <trkpt lat="44.81259" lon="6.95606">
        <ele>1813.18</ele>
        <time>2023-04-16T06:46:03Z</time>
      </trkpt>
      <trkpt lat="44.81251" lon="6.95627">
        <ele>1813.66</ele>
        <time>2023-04-16T06:46:19Z</time>
      </trkpt>
      <trkpt lat="44.81246" lon="6.95646">
        <ele>1814.15</ele>
        <time>2023-04-16T06:46:31Z</time>
      </trkpt>
      <trkpt lat="44.81246" lon="6.9566">
        <ele>1814.63</ele>
        <time>2023-04-16T06:46:41Z</time>
      </trkpt>
      <trkpt lat="44.81248" lon="6.95674">
        <ele>1814.63</ele>
        <time>2023-04-16T06:46:50Z</time>
      </trkpt>
      <trkpt lat="44.81251" lon="6.95692">
        <ele>1815.11</ele>
        <time>2023-04-16T06:47:03Z</time>
      </trkpt>
      <trkpt lat="44.81253" lon="6.95706">
        <ele>1815.59</ele>
        <time>2023-04-16T06:47:13Z</time>
      </trkpt>
      <trkpt lat="44.81254" lon="6.95722">
        <ele>1816.55</ele>
        <time>2023-04-16T06:47:23Z</time>
      </trkpt>
      <trkpt lat="44.81254" lon="6.95735">
        <ele>1817.51</ele>
        <time>2023-04-16T06:47:33Z</time>
      </trkpt>
      <trkpt lat="44.81256" lon="6.95758">
        <ele>1818.95</ele>
        <time>2023-04-16T06:47:50Z</time>
      </trkpt>
      <trkpt lat="44.81256" lon="6.95781">
        <ele>1820.39</ele>
        <time>2023-04-16T06:48:05Z</time>
      </trkpt>
      <trkpt lat="44.81254" lon="6.95795">
        <ele>1821.35</ele>
        <time>2023-04-16T06:48:15Z</time>
      </trkpt>
      <trkpt lat="44.81251" lon="6.95807">
        <ele>1821.84</ele>
        <time>2023-04-16T06:48:25Z</time>
      </trkpt>
      <trkpt lat="44.81245" lon="6.95835">
        <ele>1823.28</ele>
        <time>2023-04-16T06:48:46Z</time>
      </trkpt>
      <trkpt lat="44.81241" lon="6.95854">
        <ele>1824.24</ele>
        <time>2023-04-16T06:49:01Z</time>
      </trkpt>
      <trkpt lat="44.81241" lon="6.95872">
        <ele>1825.68</ele>
        <time>2023-04-16T06:49:15Z</time>
      </trkpt>
      <trkpt lat="44.8124" lon="6.95891">
        <ele>1827.6</ele>
        <time>2023-04-16T06:49:29Z</time>
      </trkpt>
      <trkpt lat="44.81239" lon="6.95905">
        <ele>1827.6</ele>
        <time>2023-04-16T06:49:39Z</time>
      </trkpt>
      <trkpt lat="44.81235" lon="6.95935">
        <ele>1829.53</ele>
        <time>2023-04-16T06:50:00Z</time>
      </trkpt>
      <trkpt lat="44.81232" lon="6.9595">
        <ele>1830.97</ele>
        <time>2023-04-16T06:50:13Z</time>
      </trkpt>
      <trkpt lat="44.81226" lon="6.95964">
        <ele>1831.93</ele>
        <time>2023-04-16T06:50:26Z</time>
      </trkpt>
      <trkpt lat="44.81221" lon="6.9598">
        <ele>1833.37</ele>
        <time>2023-04-16T06:50:39Z</time>
      </trkpt>
      <trkpt lat="44.81212" lon="6.95998">
        <ele>1834.81</ele>
        <time>2023-04-16T06:50:55Z</time>
      </trkpt>
      <trkpt lat="44.81198" lon="6.96025">
        <ele>1837.22</ele>
        <time>2023-04-16T06:51:19Z</time>
      </trkpt>
      <trkpt lat="44.81191" lon="6.9604">
        <ele>1838.66</ele>
        <time>2023-04-16T06:51:34Z</time>
      </trkpt>
      <trkpt lat="44.81184" lon="6.96054">
        <ele>1840.1</ele>
        <time>2023-04-16T06:51:47Z</time>
      </trkpt>
      <trkpt lat="44.8118" lon="6.96089">
        <ele>1841.54</ele>
        <time>2023-04-16T06:52:13Z</time>
      </trkpt>
      <trkpt lat="44.81182" lon="6.96107">
        <ele>1842.5</ele>
        <time>2023-04-16T06:52:26Z</time>
      </trkpt>
      <trkpt lat="44.81188" lon="6.96133">
        <ele>1844.43</ele>
        <time>2023-04-16T06:52:47Z</time>
      </trkpt>
      <trkpt lat="44.81191" lon="6.96147">
        <ele>1845.39</ele>
        <time>2023-04-16T06:52:57Z</time>
      </trkpt>
      <trkpt lat="44.81194" lon="6.96161">
        <ele>1845.87</ele>
        <time>2023-04-16T06:53:07Z</time>
      </trkpt>
      <trkpt lat="44.81193" lon="6.96189">
        <ele>1847.79</ele>
        <time>2023-04-16T06:53:27Z</time>
      </trkpt>
      <trkpt lat="44.81189" lon="6.96203">
        <ele>1848.27</ele>
        <time>2023-04-16T06:53:37Z</time>
      </trkpt>
      <trkpt lat="44.81186" lon="6.96216">
        <ele>1848.75</ele>
        <time>2023-04-16T06:53:46Z</time>
      </trkpt>
      <trkpt lat="44.81175" lon="6.96239">
        <ele>1849.23</ele>
        <time>2023-04-16T06:54:04Z</time>
      </trkpt>
      <trkpt lat="44.8117" lon="6.96252">
        <ele>1849.71</ele>
        <time>2023-04-16T06:54:14Z</time>
      </trkpt>
      <trkpt lat="44.81158" lon="6.96281">
        <ele>1851.16</ele>
        <time>2023-04-16T06:54:36Z</time>
      </trkpt>
      <trkpt lat="44.81155" lon="6.963">
        <ele>1851.64</ele>
        <time>2023-04-16T06:54:48Z</time>
      </trkpt>
      <trkpt lat="44.81153" lon="6.96327">
        <ele>1852.12</ele>
        <time>2023-04-16T06:55:06Z</time>
      </trkpt>
      <trkpt lat="44.81153" lon="6.96344">
        <ele>1853.08</ele>
        <time>2023-04-16T06:55:18Z</time>
      </trkpt>
      <trkpt lat="44.81152" lon="6.96359">
        <ele>1853.56</ele>
        <time>2023-04-16T06:55:27Z</time>
      </trkpt>
      <trkpt lat="44.81153" lon="6.96396">
        <ele>1854.04</ele>
        <time>2023-04-16T06:55:49Z</time>
      </trkpt>
      <trkpt lat="44.81155" lon="6.9643">
        <ele>1855</ele>
        <time>2023-04-16T06:56:10Z</time>
      </trkpt>
      <trkpt lat="44.81156" lon="6.96458">
        <ele>1855.96</ele>
        <time>2023-04-16T06:56:26Z</time>
      </trkpt>
      <trkpt lat="44.81158" lon="6.96486">
        <ele>1856.44</ele>
        <time>2023-04-16T06:56:43Z</time>
      </trkpt>
      <trkpt lat="44.8116" lon="6.96515">
        <ele>1857.4</ele>
        <time>2023-04-16T06:57:01Z</time>
      </trkpt>
      <trkpt lat="44.81163" lon="6.9654">
        <ele>1857.89</ele>
        <time>2023-04-16T06:57:16Z</time>
      </trkpt>
      <trkpt lat="44.81167" lon="6.96565">
        <ele>1858.37</ele>
        <time>2023-04-16T06:57:32Z</time>
      </trkpt>
      <trkpt lat="44.81173" lon="6.96595">
        <ele>1858.85</ele>
        <time>2023-04-16T06:57:51Z</time>
      </trkpt>
      <trkpt lat="44.8118" lon="6.9662">
        <ele>1859.81</ele>
        <time>2023-04-16T06:58:08Z</time>
      </trkpt>
      <trkpt lat="44.81188" lon="6.96661">
        <ele>1860.77</ele>
        <time>2023-04-16T06:58:34Z</time>
      </trkpt>
      <trkpt lat="44.8119" lon="6.96677">
        <ele>1860.77</ele>
        <time>2023-04-16T06:58:44Z</time>
      </trkpt>
      <trkpt lat="44.81173" lon="6.96693">
        <ele>1859.81</ele>
        <time>2023-04-16T06:59:04Z</time>
      </trkpt>
      <trkpt lat="44.81163" lon="6.96706">
        <ele>1860.77</ele>
        <time>2023-04-16T06:59:19Z</time>
      </trkpt>
      <trkpt lat="44.81162" lon="6.96724">
        <ele>1861.25</ele>
        <time>2023-04-16T06:59:31Z</time>
      </trkpt>
      <trkpt lat="44.8115" lon="6.96744">
        <ele>1861.73</ele>
        <time>2023-04-16T06:59:47Z</time>
      </trkpt>
      <trkpt lat="44.81134" lon="6.96753">
        <ele>1863.17</ele>
        <time>2023-04-16T07:00:05Z</time>
      </trkpt>
      <trkpt lat="44.81122" lon="6.96757">
        <ele>1867.98</ele>
        <time>2023-04-16T07:00:25Z</time>
      </trkpt>
      <trkpt lat="44.81108" lon="6.96771">
        <ele>1870.38</ele>
        <time>2023-04-16T07:00:45Z</time>
      </trkpt>
      <trkpt lat="44.811" lon="6.96766">
        <ele>1870.86</ele>
        <time>2023-04-16T07:01:36Z</time>
      </trkpt>
      <trkpt lat="44.81085" lon="6.96801">
        <ele>1873.75</ele>
        <time>2023-04-16T07:02:02Z</time>
      </trkpt>
      <trkpt lat="44.8108" lon="6.96819">
        <ele>1874.71</ele>
        <time>2023-04-16T07:02:17Z</time>
      </trkpt>
      <trkpt lat="44.81074" lon="6.96836">
        <ele>1875.67</ele>
        <time>2023-04-16T07:02:30Z</time>
      </trkpt>
      <trkpt lat="44.81061" lon="6.96845">
        <ele>1877.11</ele>
        <time>2023-04-16T07:02:45Z</time>
      </trkpt>
      <trkpt lat="44.81045" lon="6.96855">
        <ele>1878.07</ele>
        <time>2023-04-16T07:03:02Z</time>
      </trkpt>
      <trkpt lat="44.81038" lon="6.96862">
        <ele>1879.03</ele>
        <time>2023-04-16T07:03:13Z</time>
      </trkpt>
      <trkpt lat="44.81026" lon="6.96869">
        <ele>1880.96</ele>
        <time>2023-04-16T07:03:27Z</time>
      </trkpt>
      <trkpt lat="44.81014" lon="6.96879">
        <ele>1881.44</ele>
        <time>2023-04-16T07:03:40Z</time>
      </trkpt>
      <trkpt lat="44.81004" lon="6.969">
        <ele>1881.92</ele>
        <time>2023-04-16T07:03:56Z</time>
      </trkpt>
      <trkpt lat="44.80995" lon="6.96918">
        <ele>1883.84</ele>
        <time>2023-04-16T07:04:12Z</time>
      </trkpt>
      <trkpt lat="44.80981" lon="6.96936">
        <ele>1885.76</ele>
        <time>2023-04-16T07:04:33Z</time>
      </trkpt>
      <trkpt lat="44.80972" lon="6.96948">
        <ele>1886.72</ele>
        <time>2023-04-16T07:04:48Z</time>
      </trkpt>
      <trkpt lat="44.80967" lon="6.96951">
        <ele>1887.21</ele>
        <time>2023-04-16T07:06:44Z</time>
      </trkpt>
      <trkpt lat="44.80972" lon="6.96951">
        <ele>1884.8</ele>
        <time>2023-04-16T07:08:22Z</time>
      </trkpt>
      <trkpt lat="44.80971" lon="6.96954">
        <ele>1884.32</ele>
        <time>2023-04-16T07:09:58Z</time>
      </trkpt>
      <trkpt lat="44.80967" lon="6.96958">
        <ele>1884.32</ele>
        <time>2023-04-16T07:12:32Z</time>
      </trkpt>
      <trkpt lat="44.80972" lon="6.96952">
        <ele>1886.72</ele>
        <time>2023-04-16T07:13:52Z</time>
      </trkpt>
      <trkpt lat="44.80963" lon="6.9697">
        <ele>1886.72</ele>
        <time>2023-04-16T07:14:26Z</time>
      </trkpt>
      <trkpt lat="44.80953" lon="6.96992">
        <ele>1889.13</ele>
        <time>2023-04-16T07:14:53Z</time>
      </trkpt>
      <trkpt lat="44.80947" lon="6.97009">
        <ele>1890.09</ele>
        <time>2023-04-16T07:15:21Z</time>
      </trkpt>
      <trkpt lat="44.80939" lon="6.97019">
        <ele>1891.05</ele>
        <time>2023-04-16T07:15:37Z</time>
      </trkpt>
      <trkpt lat="44.80929" lon="6.97026">
        <ele>1893.93</ele>
        <time>2023-04-16T07:15:54Z</time>
      </trkpt>
      <trkpt lat="44.80916" lon="6.97034">
        <ele>1897.3</ele>
        <time>2023-04-16T07:16:21Z</time>
      </trkpt>
      <trkpt lat="44.80901" lon="6.97047">
        <ele>1900.18</ele>
        <time>2023-04-16T07:16:51Z</time>
      </trkpt>
      <trkpt lat="44.8089" lon="6.97054">
        <ele>1904.51</ele>
        <time>2023-04-16T07:17:20Z</time>
      </trkpt>
      <trkpt lat="44.8088" lon="6.97065">
        <ele>1906.91</ele>
        <time>2023-04-16T07:17:49Z</time>
      </trkpt>
      <trkpt lat="44.80867" lon="6.97073">
        <ele>1909.8</ele>
        <time>2023-04-16T07:18:19Z</time>
      </trkpt>
      <trkpt lat="44.80859" lon="6.9708">
        <ele>1911.24</ele>
        <time>2023-04-16T07:18:34Z</time>
      </trkpt>
      <trkpt lat="44.80842" lon="6.97094">
        <ele>1912.2</ele>
        <time>2023-04-16T07:19:03Z</time>
      </trkpt>
      <trkpt lat="44.80829" lon="6.97103">
        <ele>1912.68</ele>
        <time>2023-04-16T07:19:21Z</time>
      </trkpt>
      <trkpt lat="44.80819" lon="6.97112">
        <ele>1912.2</ele>
        <time>2023-04-16T07:19:37Z</time>
      </trkpt>
      <trkpt lat="44.80811" lon="6.97119">
        <ele>1912.68</ele>
        <time>2023-04-16T07:19:50Z</time>
      </trkpt>
      <trkpt lat="44.80804" lon="6.97127">
        <ele>1912.2</ele>
        <time>2023-04-16T07:20:26Z</time>
      </trkpt>
      <trkpt lat="44.80792" lon="6.97128">
        <ele>1915.56</ele>
        <time>2023-04-16T07:21:27Z</time>
      </trkpt>
      <trkpt lat="44.80777" lon="6.9712">
        <ele>1921.33</ele>
        <time>2023-04-16T07:22:11Z</time>
      </trkpt>
      <trkpt lat="44.80761" lon="6.97118">
        <ele>1923.25</ele>
        <time>2023-04-16T07:22:38Z</time>
      </trkpt>
      <trkpt lat="44.8075" lon="6.97118">
        <ele>1923.25</ele>
        <time>2023-04-16T07:23:06Z</time>
      </trkpt>
      <trkpt lat="44.80734" lon="6.9712">
        <ele>1926.62</ele>
        <time>2023-04-16T07:23:32Z</time>
      </trkpt>
      <trkpt lat="44.80725" lon="6.97125">
        <ele>1928.06</ele>
        <time>2023-04-16T07:23:46Z</time>
      </trkpt>
      <trkpt lat="44.80713" lon="6.97135">
        <ele>1931.43</ele>
        <time>2023-04-16T07:24:12Z</time>
      </trkpt>
      <trkpt lat="44.80701" lon="6.97144">
        <ele>1933.35</ele>
        <time>2023-04-16T07:24:38Z</time>
      </trkpt>
      <trkpt lat="44.80683" lon="6.97145">
        <ele>1936.23</ele>
        <time>2023-04-16T07:25:06Z</time>
      </trkpt>
      <trkpt lat="44.8067" lon="6.97152">
        <ele>1939.6</ele>
        <time>2023-04-16T07:25:37Z</time>
      </trkpt>
      <trkpt lat="44.80657" lon="6.97155">
        <ele>1942.48</ele>
        <time>2023-04-16T07:26:02Z</time>
      </trkpt>
      <trkpt lat="44.80645" lon="6.97164">
        <ele>1944.88</ele>
        <time>2023-04-16T07:26:32Z</time>
      </trkpt>
      <trkpt lat="44.80634" lon="6.97176">
        <ele>1947.29</ele>
        <time>2023-04-16T07:27:07Z</time>
      </trkpt>
      <trkpt lat="44.80623" lon="6.97188">
        <ele>1950.17</ele>
        <time>2023-04-16T07:27:34Z</time>
      </trkpt>
      <trkpt lat="44.80611" lon="6.97195">
        <ele>1952.57</ele>
        <time>2023-04-16T07:28:01Z</time>
      </trkpt>
      <trkpt lat="44.80609" lon="6.97199">
        <ele>1953.06</ele>
        <time>2023-04-16T07:29:15Z</time>
      </trkpt>
      <trkpt lat="44.80605" lon="6.97202">
        <ele>1954.02</ele>
        <time>2023-04-16T07:30:10Z</time>
      </trkpt>
      <trkpt lat="44.80598" lon="6.97209">
        <ele>1956.9</ele>
        <time>2023-04-16T07:30:35Z</time>
      </trkpt>
      <trkpt lat="44.80584" lon="6.97214">
        <ele>1960.27</ele>
        <time>2023-04-16T07:31:01Z</time>
      </trkpt>
      <trkpt lat="44.80577" lon="6.97223">
        <ele>1961.23</ele>
        <time>2023-04-16T07:31:13Z</time>
      </trkpt>
      <trkpt lat="44.80562" lon="6.97234">
        <ele>1964.11</ele>
        <time>2023-04-16T07:31:39Z</time>
      </trkpt>
      <trkpt lat="44.80551" lon="6.97244">
        <ele>1966.51</ele>
        <time>2023-04-16T07:32:03Z</time>
      </trkpt>
      <trkpt lat="44.80543" lon="6.97255">
        <ele>1970.84</ele>
        <time>2023-04-16T07:32:31Z</time>
      </trkpt>
      <trkpt lat="44.80524" lon="6.97255">
        <ele>1974.2</ele>
        <time>2023-04-16T07:33:00Z</time>
      </trkpt>
      <trkpt lat="44.80513" lon="6.97265">
        <ele>1975.65</ele>
        <time>2023-04-16T07:33:25Z</time>
      </trkpt>
      <trkpt lat="44.80503" lon="6.97275">
        <ele>1978.53</ele>
        <time>2023-04-16T07:33:49Z</time>
      </trkpt>
      <trkpt lat="44.80502" lon="6.9729">
        <ele>1981.9</ele>
        <time>2023-04-16T07:34:14Z</time>
      </trkpt>
      <trkpt lat="44.80494" lon="6.97301">
        <ele>1984.78</ele>
        <time>2023-04-16T07:34:36Z</time>
      </trkpt>
      <trkpt lat="44.80484" lon="6.97313">
        <ele>1988.14</ele>
        <time>2023-04-16T07:35:01Z</time>
      </trkpt>
      <trkpt lat="44.80468" lon="6.97321">
        <ele>1991.99</ele>
        <time>2023-04-16T07:35:27Z</time>
      </trkpt>
      <trkpt lat="44.80454" lon="6.97327">
        <ele>1994.39</ele>
        <time>2023-04-16T07:35:52Z</time>
      </trkpt>
      <trkpt lat="44.80446" lon="6.97334">
        <ele>1996.32</ele>
        <time>2023-04-16T07:36:06Z</time>
      </trkpt>
      <trkpt lat="44.80435" lon="6.97329">
        <ele>1999.2</ele>
        <time>2023-04-16T07:36:32Z</time>
      </trkpt>
      <trkpt lat="44.80432" lon="6.97329">
        <ele>2000.64</ele>
        <time>2023-04-16T07:37:46Z</time>
      </trkpt>
      <trkpt lat="44.80419" lon="6.97341">
        <ele>2004.01</ele>
        <time>2023-04-16T07:38:13Z</time>
      </trkpt>
      <trkpt lat="44.80407" lon="6.97357">
        <ele>2007.37</ele>
        <time>2023-04-16T07:38:41Z</time>
      </trkpt>
      <trkpt lat="44.80396" lon="6.97373">
        <ele>2010.73</ele>
        <time>2023-04-16T07:39:08Z</time>
      </trkpt>
      <trkpt lat="44.80389" lon="6.9738">
        <ele>2011.7</ele>
        <time>2023-04-16T07:39:21Z</time>
      </trkpt>
      <trkpt lat="44.80382" lon="6.97389">
        <ele>2015.54</ele>
        <time>2023-04-16T07:39:47Z</time>
      </trkpt>
      <trkpt lat="44.80367" lon="6.974">
        <ele>2018.91</ele>
        <time>2023-04-16T07:40:15Z</time>
      </trkpt>
      <trkpt lat="44.80361" lon="6.97415">
        <ele>2021.79</ele>
        <time>2023-04-16T07:40:42Z</time>
      </trkpt>
      <trkpt lat="44.80361" lon="6.97437">
        <ele>2022.27</ele>
        <time>2023-04-16T07:41:07Z</time>
      </trkpt>
      <trkpt lat="44.80358" lon="6.97449">
        <ele>2022.75</ele>
        <time>2023-04-16T07:41:19Z</time>
      </trkpt>
      <trkpt lat="44.80352" lon="6.97463">
        <ele>2023.23</ele>
        <time>2023-04-16T07:41:34Z</time>
      </trkpt>
      <trkpt lat="44.80343" lon="6.9747">
        <ele>2024.19</ele>
        <time>2023-04-16T07:41:47Z</time>
      </trkpt>
      <trkpt lat="44.80334" lon="6.97472">
        <ele>2025.15</ele>
        <time>2023-04-16T07:42:02Z</time>
      </trkpt>
      <trkpt lat="44.80322" lon="6.9747">
        <ele>2029.96</ele>
        <time>2023-04-16T07:42:34Z</time>
      </trkpt>
      <trkpt lat="44.80312" lon="6.97474">
        <ele>2033.33</ele>
        <time>2023-04-16T07:42:59Z</time>
      </trkpt>
      <trkpt lat="44.80302" lon="6.97482">
        <ele>2039.09</ele>
        <time>2023-04-16T07:43:39Z</time>
      </trkpt>
      <trkpt lat="44.80293" lon="6.97493">
        <ele>2042.46</ele>
        <time>2023-04-16T07:44:06Z</time>
      </trkpt>
      <trkpt lat="44.80286" lon="6.97508">
        <ele>2045.34</ele>
        <time>2023-04-16T07:44:34Z</time>
      </trkpt>
      <trkpt lat="44.8028" lon="6.97523">
        <ele>2048.71</ele>
        <time>2023-04-16T07:45:00Z</time>
      </trkpt>
      <trkpt lat="44.80275" lon="6.97539">
        <ele>2051.11</ele>
        <time>2023-04-16T07:45:24Z</time>
      </trkpt>
      <trkpt lat="44.80275" lon="6.97555">
        <ele>2053.99</ele>
        <time>2023-04-16T07:45:48Z</time>
      </trkpt>
      <trkpt lat="44.80266" lon="6.97568">
        <ele>2056.4</ele>
        <time>2023-04-16T07:46:14Z</time>
      </trkpt>
      <trkpt lat="44.80256" lon="6.97567">
        <ele>2059.76</ele>
        <time>2023-04-16T07:46:41Z</time>
      </trkpt>
      <trkpt lat="44.80244" lon="6.97559">
        <ele>2061.68</ele>
        <time>2023-04-16T07:47:08Z</time>
      </trkpt>
      <trkpt lat="44.80239" lon="6.97578">
        <ele>2065.53</ele>
        <time>2023-04-16T07:47:43Z</time>
      </trkpt>
      <trkpt lat="44.80234" lon="6.97589">
        <ele>2068.89</ele>
        <time>2023-04-16T07:48:08Z</time>
      </trkpt>
      <trkpt lat="44.80224" lon="6.9758">
        <ele>2072.26</ele>
        <time>2023-04-16T07:48:32Z</time>
      </trkpt>
      <trkpt lat="44.80215" lon="6.97573">
        <ele>2075.14</ele>
        <time>2023-04-16T07:48:56Z</time>
      </trkpt>
      <trkpt lat="44.80206" lon="6.97572">
        <ele>2078.03</ele>
        <time>2023-04-16T07:49:21Z</time>
      </trkpt>
      <trkpt lat="44.80197" lon="6.97572">
        <ele>2080.91</ele>
        <time>2023-04-16T07:49:47Z</time>
      </trkpt>
      <trkpt lat="44.80188" lon="6.97573">
        <ele>2085.24</ele>
        <time>2023-04-16T07:50:45Z</time>
      </trkpt>
      <trkpt lat="44.80187" lon="6.97558">
        <ele>2088.6</ele>
        <time>2023-04-16T07:51:13Z</time>
      </trkpt>
      <trkpt lat="44.80175" lon="6.97548">
        <ele>2092.93</ele>
        <time>2023-04-16T07:51:50Z</time>
      </trkpt>
      <trkpt lat="44.8016" lon="6.97551">
        <ele>2096.77</ele>
        <time>2023-04-16T07:52:18Z</time>
      </trkpt>
      <trkpt lat="44.80155" lon="6.9754">
        <ele>2099.18</ele>
        <time>2023-04-16T07:52:41Z</time>
      </trkpt>
      <trkpt lat="44.80148" lon="6.97551">
        <ele>2103.02</ele>
        <time>2023-04-16T07:53:13Z</time>
      </trkpt>
      <trkpt lat="44.80139" lon="6.97545">
        <ele>2107.83</ele>
        <time>2023-04-16T07:53:50Z</time>
      </trkpt>
      <trkpt lat="44.80136" lon="6.9753">
        <ele>2110.71</ele>
        <time>2023-04-16T07:54:15Z</time>
      </trkpt>
      <trkpt lat="44.8013" lon="6.97518">
        <ele>2113.12</ele>
        <time>2023-04-16T07:54:37Z</time>
      </trkpt>
      <trkpt lat="44.80121" lon="6.97529">
        <ele>2115.52</ele>
        <time>2023-04-16T07:55:11Z</time>
      </trkpt>
      <trkpt lat="44.80115" lon="6.97539">
        <ele>2118.88</ele>
        <time>2023-04-16T07:55:34Z</time>
      </trkpt>
      <trkpt lat="44.8011" lon="6.97529">
        <ele>2122.25</ele>
        <time>2023-04-16T07:55:59Z</time>
      </trkpt>
      <trkpt lat="44.80103" lon="6.97536">
        <ele>2126.57</ele>
        <time>2023-04-16T07:56:33Z</time>
      </trkpt>
      <trkpt lat="44.80093" lon="6.97536">
        <ele>2130.42</ele>
        <time>2023-04-16T07:57:07Z</time>
      </trkpt>
      <trkpt lat="44.80089" lon="6.97552">
        <ele>2133.3</ele>
        <time>2023-04-16T07:57:35Z</time>
      </trkpt>
      <trkpt lat="44.8008" lon="6.97557">
        <ele>2136.67</ele>
        <time>2023-04-16T07:58:00Z</time>
      </trkpt>
      <trkpt lat="44.80075" lon="6.9757">
        <ele>2140.51</ele>
        <time>2023-04-16T07:58:27Z</time>
      </trkpt>
      <trkpt lat="44.80066" lon="6.97574">
        <ele>2145.8</ele>
        <time>2023-04-16T07:59:14Z</time>
      </trkpt>
      <trkpt lat="44.80061" lon="6.9759">
        <ele>2148.2</ele>
        <time>2023-04-16T07:59:42Z</time>
      </trkpt>
      <trkpt lat="44.80056" lon="6.9761">
        <ele>2151.09</ele>
        <time>2023-04-16T08:00:12Z</time>
      </trkpt>
      <trkpt lat="44.80055" lon="6.97626">
        <ele>2153.97</ele>
        <time>2023-04-16T08:00:39Z</time>
      </trkpt>
      <trkpt lat="44.80051" lon="6.97644">
        <ele>2156.86</ele>
        <time>2023-04-16T08:01:08Z</time>
      </trkpt>
      <trkpt lat="44.80049" lon="6.97662">
        <ele>2160.22</ele>
        <time>2023-04-16T08:01:34Z</time>
      </trkpt>
      <trkpt lat="44.80046" lon="6.97677">
        <ele>2162.14</ele>
        <time>2023-04-16T08:02:11Z</time>
      </trkpt>
      <trkpt lat="44.80044" lon="6.97684">
        <ele>2163.1</ele>
        <time>2023-04-16T08:04:03Z</time>
      </trkpt>
      <trkpt lat="44.80035" lon="6.9769">
        <ele>2166.47</ele>
        <time>2023-04-16T08:04:28Z</time>
      </trkpt>
      <trkpt lat="44.80028" lon="6.97703">
        <ele>2170.31</ele>
        <time>2023-04-16T08:04:58Z</time>
      </trkpt>
      <trkpt lat="44.80017" lon="6.977">
        <ele>2174.16</ele>
        <time>2023-04-16T08:05:28Z</time>
      </trkpt>
      <trkpt lat="44.80011" lon="6.97703">
        <ele>2178</ele>
        <time>2023-04-16T08:05:57Z</time>
      </trkpt>
      <trkpt lat="44.80004" lon="6.97716">
        <ele>2181.85</ele>
        <time>2023-04-16T08:06:26Z</time>
      </trkpt>
      <trkpt lat="44.79996" lon="6.97734">
        <ele>2184.73</ele>
        <time>2023-04-16T08:06:56Z</time>
      </trkpt>
      <trkpt lat="44.79988" lon="6.97753">
        <ele>2187.62</ele>
        <time>2023-04-16T08:07:24Z</time>
      </trkpt>
      <trkpt lat="44.7998" lon="6.97767">
        <ele>2190.98</ele>
        <time>2023-04-16T08:07:51Z</time>
      </trkpt>
      <trkpt lat="44.79975" lon="6.97791">
        <ele>2193.87</ele>
        <time>2023-04-16T08:08:21Z</time>
      </trkpt>
      <trkpt lat="44.79966" lon="6.97809">
        <ele>2195.79</ele>
        <time>2023-04-16T08:08:47Z</time>
      </trkpt>
      <trkpt lat="44.79961" lon="6.97825">
        <ele>2198.67</ele>
        <time>2023-04-16T08:09:13Z</time>
      </trkpt>
      <trkpt lat="44.79956" lon="6.9784">
        <ele>2201.56</ele>
        <time>2023-04-16T08:09:41Z</time>
      </trkpt>
      <trkpt lat="44.7995" lon="6.97862">
        <ele>2204.92</ele>
        <time>2023-04-16T08:10:10Z</time>
      </trkpt>
      <trkpt lat="44.79944" lon="6.97882">
        <ele>2206.84</ele>
        <time>2023-04-16T08:10:38Z</time>
      </trkpt>
      <trkpt lat="44.79942" lon="6.97895">
        <ele>2208.77</ele>
        <time>2023-04-16T08:11:03Z</time>
      </trkpt>
      <trkpt lat="44.79936" lon="6.97916">
        <ele>2209.73</ele>
        <time>2023-04-16T08:11:54Z</time>
      </trkpt>
      <trkpt lat="44.79929" lon="6.97937">
        <ele>2213.09</ele>
        <time>2023-04-16T08:12:18Z</time>
      </trkpt>
      <trkpt lat="44.79923" lon="6.97953">
        <ele>2214.53</ele>
        <time>2023-04-16T08:13:23Z</time>
      </trkpt>
      <trkpt lat="44.79917" lon="6.97969">
        <ele>2215.01</ele>
        <time>2023-04-16T08:13:37Z</time>
      </trkpt>
      <trkpt lat="44.79901" lon="6.97983">
        <ele>2218.86</ele>
        <time>2023-04-16T08:14:05Z</time>
      </trkpt>
      <trkpt lat="44.79895" lon="6.97995">
        <ele>2220.3</ele>
        <time>2023-04-16T08:14:18Z</time>
      </trkpt>
      <trkpt lat="44.79891" lon="6.98007">
        <ele>2221.74</ele>
        <time>2023-04-16T08:14:31Z</time>
      </trkpt>
      <trkpt lat="44.79885" lon="6.9803">
        <ele>2221.74</ele>
        <time>2023-04-16T08:14:49Z</time>
      </trkpt>
      <trkpt lat="44.79877" lon="6.98039">
        <ele>2222.22</ele>
        <time>2023-04-16T08:15:04Z</time>
      </trkpt>
      <trkpt lat="44.79867" lon="6.98051">
        <ele>2222.71</ele>
        <time>2023-04-16T08:16:10Z</time>
      </trkpt>
      <trkpt lat="44.79861" lon="6.98062">
        <ele>2223.19</ele>
        <time>2023-04-16T08:16:24Z</time>
      </trkpt>
      <trkpt lat="44.7986" lon="6.98066">
        <ele>2222.71</ele>
        <time>2023-04-16T08:20:36Z</time>
      </trkpt>
      <trkpt lat="44.7985" lon="6.98058">
        <ele>2225.59</ele>
        <time>2023-04-16T08:21:05Z</time>
      </trkpt>
      <trkpt lat="44.7984" lon="6.98061">
        <ele>2227.03</ele>
        <time>2023-04-16T08:21:36Z</time>
      </trkpt>
      <trkpt lat="44.79825" lon="6.98069">
        <ele>2228.95</ele>
        <time>2023-04-16T08:22:04Z</time>
      </trkpt>
      <trkpt lat="44.79812" lon="6.98074">
        <ele>2230.4</ele>
        <time>2023-04-16T08:22:27Z</time>
      </trkpt>
      <trkpt lat="44.79798" lon="6.98081">
        <ele>2232.8</ele>
        <time>2023-04-16T08:23:11Z</time>
      </trkpt>
      <trkpt lat="44.79789" lon="6.98087">
        <ele>2234.24</ele>
        <time>2023-04-16T08:23:26Z</time>
      </trkpt>
      <trkpt lat="44.79776" lon="6.98095">
        <ele>2237.61</ele>
        <time>2023-04-16T08:23:54Z</time>
      </trkpt>
      <trkpt lat="44.79765" lon="6.98104">
        <ele>2241.45</ele>
        <time>2023-04-16T08:24:23Z</time>
      </trkpt>
      <trkpt lat="44.79753" lon="6.98116">
        <ele>2244.82</ele>
        <time>2023-04-16T08:24:52Z</time>
      </trkpt>
      <trkpt lat="44.79742" lon="6.98123">
        <ele>2248.18</ele>
        <time>2023-04-16T08:25:19Z</time>
      </trkpt>
      <trkpt lat="44.79731" lon="6.98125">
        <ele>2251.06</ele>
        <time>2023-04-16T08:25:43Z</time>
      </trkpt>
      <trkpt lat="44.79724" lon="6.98112">
        <ele>2253.47</ele>
        <time>2023-04-16T08:26:07Z</time>
      </trkpt>
      <trkpt lat="44.79717" lon="6.98102">
        <ele>2257.79</ele>
        <time>2023-04-16T08:26:45Z</time>
      </trkpt>
      <trkpt lat="44.79706" lon="6.98106">
        <ele>2260.68</ele>
        <time>2023-04-16T08:27:12Z</time>
      </trkpt>
      <trkpt lat="44.79693" lon="6.98113">
        <ele>2263.56</ele>
        <time>2023-04-16T08:27:43Z</time>
      </trkpt>
      <trkpt lat="44.79685" lon="6.98116">
        <ele>2265</ele>
        <time>2023-04-16T08:28:00Z</time>
      </trkpt>
      <trkpt lat="44.79672" lon="6.98121">
        <ele>2267.41</ele>
        <time>2023-04-16T08:28:26Z</time>
      </trkpt>
      <trkpt lat="44.79658" lon="6.98122">
        <ele>2269.33</ele>
        <time>2023-04-16T08:29:15Z</time>
      </trkpt>
      <trkpt lat="44.79643" lon="6.98124">
        <ele>2272.69</ele>
        <time>2023-04-16T08:29:42Z</time>
      </trkpt>
      <trkpt lat="44.7963" lon="6.98128">
        <ele>2275.58</ele>
        <time>2023-04-16T08:30:08Z</time>
      </trkpt>
      <trkpt lat="44.79618" lon="6.98131">
        <ele>2278.46</ele>
        <time>2023-04-16T08:30:34Z</time>
      </trkpt>
      <trkpt lat="44.79601" lon="6.9813">
        <ele>2280.87</ele>
        <time>2023-04-16T08:31:04Z</time>
      </trkpt>
      <trkpt lat="44.7959" lon="6.98123">
        <ele>2283.75</ele>
        <time>2023-04-16T08:31:29Z</time>
      </trkpt>
      <trkpt lat="44.79579" lon="6.98118">
        <ele>2286.15</ele>
        <time>2023-04-16T08:31:55Z</time>
      </trkpt>
      <trkpt lat="44.79574" lon="6.98122">
        <ele>2288.56</ele>
        <time>2023-04-16T08:32:20Z</time>
      </trkpt>
      <trkpt lat="44.79571" lon="6.98137">
        <ele>2291.44</ele>
        <time>2023-04-16T08:32:47Z</time>
      </trkpt>
      <trkpt lat="44.79563" lon="6.98129">
        <ele>2294.32</ele>
        <time>2023-04-16T08:33:12Z</time>
      </trkpt>
      <trkpt lat="44.79557" lon="6.98133">
        <ele>2297.69</ele>
        <time>2023-04-16T08:33:44Z</time>
      </trkpt>
      <trkpt lat="44.79549" lon="6.9813">
        <ele>2302.01</ele>
        <time>2023-04-16T08:34:21Z</time>
      </trkpt>
      <trkpt lat="44.79541" lon="6.98119">
        <ele>2305.86</ele>
        <time>2023-04-16T08:35:04Z</time>
      </trkpt>
      <trkpt lat="44.79532" lon="6.9811">
        <ele>2309.22</ele>
        <time>2023-04-16T08:35:38Z</time>
      </trkpt>
      <trkpt lat="44.79521" lon="6.98106">
        <ele>2313.07</ele>
        <time>2023-04-16T08:36:05Z</time>
      </trkpt>
      <trkpt lat="44.79512" lon="6.98099">
        <ele>2314.51</ele>
        <time>2023-04-16T08:36:27Z</time>
      </trkpt>
      <trkpt lat="44.79505" lon="6.98089">
        <ele>2318.36</ele>
        <time>2023-04-16T08:37:02Z</time>
      </trkpt>
      <trkpt lat="44.79493" lon="6.98078">
        <ele>2322.68</ele>
        <time>2023-04-16T08:37:38Z</time>
      </trkpt>
      <trkpt lat="44.79483" lon="6.98068">
        <ele>2326.53</ele>
        <time>2023-04-16T08:38:13Z</time>
      </trkpt>
      <trkpt lat="44.79474" lon="6.98057">
        <ele>2330.37</ele>
        <time>2023-04-16T08:38:46Z</time>
      </trkpt>
      <trkpt lat="44.79465" lon="6.98052">
        <ele>2332.78</ele>
        <time>2023-04-16T08:39:20Z</time>
      </trkpt>
      <trkpt lat="44.79456" lon="6.98052">
        <ele>2335.66</ele>
        <time>2023-04-16T08:39:57Z</time>
      </trkpt>
      <trkpt lat="44.79447" lon="6.98054">
        <ele>2339.51</ele>
        <time>2023-04-16T08:40:24Z</time>
      </trkpt>
      <trkpt lat="44.79439" lon="6.98059">
        <ele>2341.91</ele>
        <time>2023-04-16T08:40:50Z</time>
      </trkpt>
      <trkpt lat="44.79428" lon="6.98064">
        <ele>2345.27</ele>
        <time>2023-04-16T08:41:21Z</time>
      </trkpt>
      <trkpt lat="44.79416" lon="6.98072">
        <ele>2348.64</ele>
        <time>2023-04-16T08:41:47Z</time>
      </trkpt>
      <trkpt lat="44.79407" lon="6.98085">
        <ele>2351.04</ele>
        <time>2023-04-16T08:42:13Z</time>
      </trkpt>
      <trkpt lat="44.79393" lon="6.98096">
        <ele>2352.96</ele>
        <time>2023-04-16T08:42:42Z</time>
      </trkpt>
      <trkpt lat="44.79379" lon="6.98104">
        <ele>2354.89</ele>
        <time>2023-04-16T08:43:12Z</time>
      </trkpt>
      <trkpt lat="44.79369" lon="6.98114">
        <ele>2357.77</ele>
        <time>2023-04-16T08:43:38Z</time>
      </trkpt>
      <trkpt lat="44.7936" lon="6.98106">
        <ele>2359.69</ele>
        <time>2023-04-16T08:44:55Z</time>
      </trkpt>
      <trkpt lat="44.79349" lon="6.98094">
        <ele>2363.54</ele>
        <time>2023-04-16T08:45:36Z</time>
      </trkpt>
      <trkpt lat="44.79344" lon="6.98106">
        <ele>2366.9</ele>
        <time>2023-04-16T08:46:13Z</time>
      </trkpt>
      <trkpt lat="44.79339" lon="6.98116">
        <ele>2370.75</ele>
        <time>2023-04-16T08:46:48Z</time>
      </trkpt>
      <trkpt lat="44.79331" lon="6.98103">
        <ele>2374.59</ele>
        <time>2023-04-16T08:47:34Z</time>
      </trkpt>
      <trkpt lat="44.7933" lon="6.98094">
        <ele>2377.96</ele>
        <time>2023-04-16T08:48:08Z</time>
      </trkpt>
      <trkpt lat="44.79323" lon="6.98083">
        <ele>2380.36</ele>
        <time>2023-04-16T08:48:29Z</time>
      </trkpt>
      <trkpt lat="44.79315" lon="6.98082">
        <ele>2382.76</ele>
        <time>2023-04-16T08:49:25Z</time>
      </trkpt>
      <trkpt lat="44.79305" lon="6.98095">
        <ele>2386.13</ele>
        <time>2023-04-16T08:49:52Z</time>
      </trkpt>
      <trkpt lat="44.79297" lon="6.98101">
        <ele>2388.53</ele>
        <time>2023-04-16T08:50:15Z</time>
      </trkpt>
      <trkpt lat="44.79289" lon="6.98093">
        <ele>2391.9</ele>
        <time>2023-04-16T08:50:39Z</time>
      </trkpt>
      <trkpt lat="44.79282" lon="6.98084">
        <ele>2393.82</ele>
        <time>2023-04-16T08:51:02Z</time>
      </trkpt>
      <trkpt lat="44.79274" lon="6.98076">
        <ele>2397.18</ele>
        <time>2023-04-16T08:51:27Z</time>
      </trkpt>
      <trkpt lat="44.79266" lon="6.98065">
        <ele>2400.07</ele>
        <time>2023-04-16T08:52:00Z</time>
      </trkpt>
      <trkpt lat="44.79264" lon="6.98051">
        <ele>2403.43</ele>
        <time>2023-04-16T08:52:33Z</time>
      </trkpt>
      <trkpt lat="44.79255" lon="6.98052">
        <ele>2405.84</ele>
        <time>2023-04-16T08:52:53Z</time>
      </trkpt>
      <trkpt lat="44.79246" lon="6.98058">
        <ele>2408.24</ele>
        <time>2023-04-16T08:53:24Z</time>
      </trkpt>
      <trkpt lat="44.79241" lon="6.98071">
        <ele>2411.6</ele>
        <time>2023-04-16T08:54:31Z</time>
      </trkpt>
      <trkpt lat="44.79241" lon="6.98085">
        <ele>2414.01</ele>
        <time>2023-04-16T08:54:58Z</time>
      </trkpt>
      <trkpt lat="44.79234" lon="6.98091">
        <ele>2417.85</ele>
        <time>2023-04-16T08:55:32Z</time>
      </trkpt>
      <trkpt lat="44.79223" lon="6.98087">
        <ele>2421.22</ele>
        <time>2023-04-16T08:56:09Z</time>
      </trkpt>
      <trkpt lat="44.79212" lon="6.98082">
        <ele>2424.58</ele>
        <time>2023-04-16T08:56:45Z</time>
      </trkpt>
      <trkpt lat="44.79208" lon="6.98092">
        <ele>2427.95</ele>
        <time>2023-04-16T08:57:20Z</time>
      </trkpt>
      <trkpt lat="44.79205" lon="6.98104">
        <ele>2431.31</ele>
        <time>2023-04-16T08:57:56Z</time>
      </trkpt>
      <trkpt lat="44.79195" lon="6.98099">
        <ele>2434.2</ele>
        <time>2023-04-16T08:58:29Z</time>
      </trkpt>
      <trkpt lat="44.79191" lon="6.98106">
        <ele>2437.56</ele>
        <time>2023-04-16T08:59:03Z</time>
      </trkpt>
      <trkpt lat="44.79189" lon="6.98118">
        <ele>2439.96</ele>
        <time>2023-04-16T08:59:42Z</time>
      </trkpt>
      <trkpt lat="44.79181" lon="6.98108">
        <ele>2443.81</ele>
        <time>2023-04-16T09:00:18Z</time>
      </trkpt>
      <trkpt lat="44.79174" lon="6.98096">
        <ele>2447.65</ele>
        <time>2023-04-16T09:01:07Z</time>
      </trkpt>
      <trkpt lat="44.79168" lon="6.98086">
        <ele>2451.02</ele>
        <time>2023-04-16T09:01:40Z</time>
      </trkpt>
      <trkpt lat="44.79161" lon="6.98075">
        <ele>2453.9</ele>
        <time>2023-04-16T09:02:14Z</time>
      </trkpt>
      <trkpt lat="44.79151" lon="6.98068">
        <ele>2457.75</ele>
        <time>2023-04-16T09:02:46Z</time>
      </trkpt>
      <trkpt lat="44.79146" lon="6.98072">
        <ele>2460.63</ele>
        <time>2023-04-16T09:03:20Z</time>
      </trkpt>
      <trkpt lat="44.79145" lon="6.98086">
        <ele>2464</ele>
        <time>2023-04-16T09:03:53Z</time>
      </trkpt>
      <trkpt lat="44.79144" lon="6.98099">
        <ele>2466.4</ele>
        <time>2023-04-16T09:04:36Z</time>
      </trkpt>
      <trkpt lat="44.79136" lon="6.981">
        <ele>2469.28</ele>
        <time>2023-04-16T09:05:16Z</time>
      </trkpt>
      <trkpt lat="44.79125" lon="6.98097">
        <ele>2472.65</ele>
        <time>2023-04-16T09:05:50Z</time>
      </trkpt>
      <trkpt lat="44.79122" lon="6.98109">
        <ele>2475.05</ele>
        <time>2023-04-16T09:06:27Z</time>
      </trkpt>
      <trkpt lat="44.79114" lon="6.98113">
        <ele>2478.42</ele>
        <time>2023-04-16T09:07:02Z</time>
      </trkpt>
      <trkpt lat="44.79111" lon="6.98126">
        <ele>2481.78</ele>
        <time>2023-04-16T09:08:02Z</time>
      </trkpt>
      <trkpt lat="44.79109" lon="6.98141">
        <ele>2485.63</ele>
        <time>2023-04-16T09:08:32Z</time>
      </trkpt>
      <trkpt lat="44.79098" lon="6.9815">
        <ele>2488.99</ele>
        <time>2023-04-16T09:09:07Z</time>
      </trkpt>
      <trkpt lat="44.79096" lon="6.98155">
        <ele>2490.43</ele>
        <time>2023-04-16T09:11:06Z</time>
      </trkpt>
      <trkpt lat="44.79091" lon="6.98157">
        <ele>2491.87</ele>
        <time>2023-04-16T09:15:28Z</time>
      </trkpt>
      <trkpt lat="44.79083" lon="6.98167">
        <ele>2493.32</ele>
        <time>2023-04-16T09:15:43Z</time>
      </trkpt>
      <trkpt lat="44.79073" lon="6.98178">
        <ele>2497.16</ele>
        <time>2023-04-16T09:16:10Z</time>
      </trkpt>
      <trkpt lat="44.79065" lon="6.98169">
        <ele>2500.53</ele>
        <time>2023-04-16T09:16:38Z</time>
      </trkpt>
      <trkpt lat="44.7906" lon="6.98157">
        <ele>2503.89</ele>
        <time>2023-04-16T09:17:07Z</time>
      </trkpt>
      <trkpt lat="44.7906" lon="6.98144">
        <ele>2508.22</ele>
        <time>2023-04-16T09:17:54Z</time>
      </trkpt>
      <trkpt lat="44.79056" lon="6.98133">
        <ele>2512.06</ele>
        <time>2023-04-16T09:18:52Z</time>
      </trkpt>
      <trkpt lat="44.79046" lon="6.98137">
        <ele>2516.87</ele>
        <time>2023-04-16T09:19:34Z</time>
      </trkpt>
      <trkpt lat="44.79036" lon="6.9814">
        <ele>2520.23</ele>
        <time>2023-04-16T09:20:10Z</time>
      </trkpt>
      <trkpt lat="44.79026" lon="6.9814">
        <ele>2524.08</ele>
        <time>2023-04-16T09:20:45Z</time>
      </trkpt>
      <trkpt lat="44.79016" lon="6.98143">
        <ele>2527.92</ele>
        <time>2023-04-16T09:21:29Z</time>
      </trkpt>
      <trkpt lat="44.79021" lon="6.98131">
        <ele>2530.81</ele>
        <time>2023-04-16T09:22:40Z</time>
      </trkpt>
      <trkpt lat="44.79028" lon="6.98121">
        <ele>2534.65</ele>
        <time>2023-04-16T09:23:40Z</time>
      </trkpt>
      <trkpt lat="44.79026" lon="6.98106">
        <ele>2537.06</ele>
        <time>2023-04-16T09:24:22Z</time>
      </trkpt>
      <trkpt lat="44.7902" lon="6.98093">
        <ele>2540.9</ele>
        <time>2023-04-16T09:25:03Z</time>
      </trkpt>
      <trkpt lat="44.79017" lon="6.98078">
        <ele>2542.82</ele>
        <time>2023-04-16T09:25:28Z</time>
      </trkpt>
      <trkpt lat="44.79014" lon="6.98064">
        <ele>2545.71</ele>
        <time>2023-04-16T09:25:55Z</time>
      </trkpt>
      <trkpt lat="44.7901" lon="6.98051">
        <ele>2548.11</ele>
        <time>2023-04-16T09:26:21Z</time>
      </trkpt>
      <trkpt lat="44.79004" lon="6.98032">
        <ele>2550.51</ele>
        <time>2023-04-16T09:26:50Z</time>
      </trkpt>
      <trkpt lat="44.78993" lon="6.98023">
        <ele>2554.36</ele>
        <time>2023-04-16T09:27:26Z</time>
      </trkpt>
      <trkpt lat="44.78983" lon="6.9801">
        <ele>2554.84</ele>
        <time>2023-04-16T09:27:53Z</time>
      </trkpt>
      <trkpt lat="44.78974" lon="6.97995">
        <ele>2554.84</ele>
        <time>2023-04-16T09:28:23Z</time>
      </trkpt>
      <trkpt lat="44.78963" lon="6.97992">
        <ele>2555.8</ele>
        <time>2023-04-16T09:28:51Z</time>
      </trkpt>
      <trkpt lat="44.78962" lon="6.97988">
        <ele>2555.32</ele>
        <time>2023-04-16T09:30:21Z</time>
      </trkpt>
      <trkpt lat="44.78972" lon="6.97964">
        <ele>2553.88</ele>
        <time>2023-04-16T09:30:58Z</time>
      </trkpt>
      <trkpt lat="44.78979" lon="6.97953">
        <ele>2553.88</ele>
        <time>2023-04-16T09:31:13Z</time>
      </trkpt>
      <trkpt lat="44.78984" lon="6.97942">
        <ele>2556.28</ele>
        <time>2023-04-16T09:31:30Z</time>
      </trkpt>
      <trkpt lat="44.78992" lon="6.97926">
        <ele>2559.17</ele>
        <time>2023-04-16T09:31:59Z</time>
      </trkpt>
      <trkpt lat="44.78997" lon="6.97915">
        <ele>2559.65</ele>
        <time>2023-04-16T09:32:15Z</time>
      </trkpt>
      <trkpt lat="44.79002" lon="6.97896">
        <ele>2561.09</ele>
        <time>2023-04-16T09:32:39Z</time>
      </trkpt>
      <trkpt lat="44.79005" lon="6.97884">
        <ele>2562.53</ele>
        <time>2023-04-16T09:32:53Z</time>
      </trkpt>
      <trkpt lat="44.79009" lon="6.97867">
        <ele>2563.49</ele>
        <time>2023-04-16T09:33:11Z</time>
      </trkpt>
      <trkpt lat="44.7901" lon="6.97853">
        <ele>2563.49</ele>
        <time>2023-04-16T09:33:25Z</time>
      </trkpt>
      <trkpt lat="44.79012" lon="6.97838">
        <ele>2564.45</ele>
        <time>2023-04-16T09:33:40Z</time>
      </trkpt>
      <trkpt lat="44.79014" lon="6.97825">
        <ele>2565.42</ele>
        <time>2023-04-16T09:33:55Z</time>
      </trkpt>
      <trkpt lat="44.79018" lon="6.97799">
        <ele>2567.82</ele>
        <time>2023-04-16T09:34:22Z</time>
      </trkpt>
      <trkpt lat="44.7902" lon="6.97782">
        <ele>2570.22</ele>
        <time>2023-04-16T09:34:48Z</time>
      </trkpt>
      <trkpt lat="44.79029" lon="6.97773">
        <ele>2573.11</ele>
        <time>2023-04-16T09:35:23Z</time>
      </trkpt>
      <trkpt lat="44.79036" lon="6.97761">
        <ele>2576.95</ele>
        <time>2023-04-16T09:35:59Z</time>
      </trkpt>
      <trkpt lat="44.79041" lon="6.97747">
        <ele>2580.32</ele>
        <time>2023-04-16T09:36:37Z</time>
      </trkpt>
      <trkpt lat="44.79046" lon="6.97737">
        <ele>2582.24</ele>
        <time>2023-04-16T09:37:24Z</time>
      </trkpt>
      <trkpt lat="44.79049" lon="6.97732">
        <ele>2584.16</ele>
        <time>2023-04-16T09:39:46Z</time>
      </trkpt>
      <trkpt lat="44.79048" lon="6.97737">
        <ele>2581.76</ele>
        <time>2023-04-16T09:42:10Z</time>
      </trkpt>
      <trkpt lat="44.79046" lon="6.97738">
        <ele>2583.2</ele>
        <time>2023-04-16T09:48:27Z</time>
      </trkpt>
      <trkpt lat="44.79049" lon="6.97741">
        <ele>2582.72</ele>
        <time>2023-04-16T09:52:36Z</time>
      </trkpt>
      <trkpt lat="44.79046" lon="6.97737">
        <ele>2584.64</ele>
        <time>2023-04-16T09:55:33Z</time>
      </trkpt>
      <trkpt lat="44.79042" lon="6.97738">
        <ele>2584.64</ele>
        <time>2023-04-16T09:56:58Z</time>
      </trkpt>
      <trkpt lat="44.79039" lon="6.97756">
        <ele>2580.8</ele>
        <time>2023-04-16T09:58:30Z</time>
      </trkpt>
      <trkpt lat="44.79032" lon="6.97772">
        <ele>2575.99</ele>
        <time>2023-04-16T09:58:40Z</time>
      </trkpt>
      <trkpt lat="44.79025" lon="6.97787">
        <ele>2573.11</ele>
        <time>2023-04-16T09:58:54Z</time>
      </trkpt>
      <trkpt lat="44.79034" lon="6.97788">
        <ele>2570.7</ele>
        <time>2023-04-16T09:59:11Z</time>
      </trkpt>
      <trkpt lat="44.79032" lon="6.97812">
        <ele>2566.38</ele>
        <time>2023-04-16T09:59:16Z</time>
      </trkpt>
      <trkpt lat="44.79035" lon="6.9782">
        <ele>2562.53</ele>
        <time>2023-04-16T09:59:29Z</time>
      </trkpt>
      <trkpt lat="44.79034" lon="6.97841">
        <ele>2559.65</ele>
        <time>2023-04-16T09:59:40Z</time>
      </trkpt>
      <trkpt lat="44.7904" lon="6.97836">
        <ele>2557.73</ele>
        <time>2023-04-16T10:00:32Z</time>
      </trkpt>
      <trkpt lat="44.79047" lon="6.97842">
        <ele>2554.84</ele>
        <time>2023-04-16T10:00:54Z</time>
      </trkpt>
      <trkpt lat="44.79057" lon="6.97835">
        <ele>2550.51</ele>
        <time>2023-04-16T10:01:00Z</time>
      </trkpt>
      <trkpt lat="44.79067" lon="6.97835">
        <ele>2546.19</ele>
        <time>2023-04-16T10:01:06Z</time>
      </trkpt>
      <trkpt lat="44.79075" lon="6.97838">
        <ele>2539.94</ele>
        <time>2023-04-16T10:01:23Z</time>
      </trkpt>
      <trkpt lat="44.79084" lon="6.97826">
        <ele>2537.06</ele>
        <time>2023-04-16T10:01:28Z</time>
      </trkpt>
      <trkpt lat="44.79089" lon="6.97838">
        <ele>2532.73</ele>
        <time>2023-04-16T10:01:33Z</time>
      </trkpt>
      <trkpt lat="44.79097" lon="6.97831">
        <ele>2528.89</ele>
        <time>2023-04-16T10:01:36Z</time>
      </trkpt>
      <trkpt lat="44.79101" lon="6.97843">
        <ele>2522.16</ele>
        <time>2023-04-16T10:01:40Z</time>
      </trkpt>
      <trkpt lat="44.79114" lon="6.97843">
        <ele>2515.43</ele>
        <time>2023-04-16T10:01:45Z</time>
      </trkpt>
      <trkpt lat="44.79114" lon="6.97857">
        <ele>2507.74</ele>
        <time>2023-04-16T10:01:49Z</time>
      </trkpt>
      <trkpt lat="44.79122" lon="6.97864">
        <ele>2503.89</ele>
        <time>2023-04-16T10:01:52Z</time>
      </trkpt>
      <trkpt lat="44.79136" lon="6.97868">
        <ele>2496.2</ele>
        <time>2023-04-16T10:01:56Z</time>
      </trkpt>
      <trkpt lat="44.79138" lon="6.97885">
        <ele>2488.99</ele>
        <time>2023-04-16T10:01:59Z</time>
      </trkpt>
      <trkpt lat="44.79146" lon="6.97896">
        <ele>2480.82</ele>
        <time>2023-04-16T10:02:03Z</time>
      </trkpt>
      <trkpt lat="44.79155" lon="6.97907">
        <ele>2474.57</ele>
        <time>2023-04-16T10:02:07Z</time>
      </trkpt>
      <trkpt lat="44.79149" lon="6.9792">
        <ele>2470.24</ele>
        <time>2023-04-16T10:02:09Z</time>
      </trkpt>
      <trkpt lat="44.7915" lon="6.97926">
        <ele>2466.4</ele>
        <time>2023-04-16T10:02:14Z</time>
      </trkpt>
      <trkpt lat="44.79157" lon="6.97946">
        <ele>2460.63</ele>
        <time>2023-04-16T10:02:48Z</time>
      </trkpt>
      <trkpt lat="44.79165" lon="6.97955">
        <ele>2456.79</ele>
        <time>2023-04-16T10:02:50Z</time>
      </trkpt>
      <trkpt lat="44.79179" lon="6.97957">
        <ele>2452.46</ele>
        <time>2023-04-16T10:02:52Z</time>
      </trkpt>
      <trkpt lat="44.79182" lon="6.97975">
        <ele>2446.69</ele>
        <time>2023-04-16T10:02:54Z</time>
      </trkpt>
      <trkpt lat="44.79183" lon="6.97992">
        <ele>2441.89</ele>
        <time>2023-04-16T10:02:56Z</time>
      </trkpt>
      <trkpt lat="44.79205" lon="6.97995">
        <ele>2435.16</ele>
        <time>2023-04-16T10:03:01Z</time>
      </trkpt>
      <trkpt lat="44.79206" lon="6.98018">
        <ele>2427.95</ele>
        <time>2023-04-16T10:03:06Z</time>
      </trkpt>
      <trkpt lat="44.79219" lon="6.98016">
        <ele>2424.58</ele>
        <time>2023-04-16T10:03:10Z</time>
      </trkpt>
      <trkpt lat="44.79227" lon="6.98026">
        <ele>2420.26</ele>
        <time>2023-04-16T10:03:12Z</time>
      </trkpt>
      <trkpt lat="44.79228" lon="6.98042">
        <ele>2416.41</ele>
        <time>2023-04-16T10:03:14Z</time>
      </trkpt>
      <trkpt lat="44.79238" lon="6.9805">
        <ele>2412.57</ele>
        <time>2023-04-16T10:03:17Z</time>
      </trkpt>
      <trkpt lat="44.79248" lon="6.98049">
        <ele>2408.72</ele>
        <time>2023-04-16T10:03:54Z</time>
      </trkpt>
      <trkpt lat="44.79262" lon="6.98051">
        <ele>2405.36</ele>
        <time>2023-04-16T10:03:59Z</time>
      </trkpt>
      <trkpt lat="44.79273" lon="6.98049">
        <ele>2401.51</ele>
        <time>2023-04-16T10:04:04Z</time>
      </trkpt>
      <trkpt lat="44.79294" lon="6.9804">
        <ele>2393.34</ele>
        <time>2023-04-16T10:04:10Z</time>
      </trkpt>
      <trkpt lat="44.79299" lon="6.98052">
        <ele>2389.49</ele>
        <time>2023-04-16T10:04:12Z</time>
      </trkpt>
      <trkpt lat="44.79315" lon="6.98086">
        <ele>2384.21</ele>
        <time>2023-04-16T10:04:19Z</time>
      </trkpt>
      <trkpt lat="44.7933" lon="6.98086">
        <ele>2379.4</ele>
        <time>2023-04-16T10:04:24Z</time>
      </trkpt>
      <trkpt lat="44.79344" lon="6.98094">
        <ele>2370.75</ele>
        <time>2023-04-16T10:04:28Z</time>
      </trkpt>
      <trkpt lat="44.79354" lon="6.98085">
        <ele>2367.86</ele>
        <time>2023-04-16T10:04:30Z</time>
      </trkpt>
      <trkpt lat="44.79362" lon="6.98094">
        <ele>2362.1</ele>
        <time>2023-04-16T10:04:32Z</time>
      </trkpt>
      <trkpt lat="44.79374" lon="6.98112">
        <ele>2355.85</ele>
        <time>2023-04-16T10:04:39Z</time>
      </trkpt>
      <trkpt lat="44.79373" lon="6.98116">
        <ele>2354.41</ele>
        <time>2023-04-16T10:08:43Z</time>
      </trkpt>
      <trkpt lat="44.79374" lon="6.98118">
        <ele>2350.56</ele>
        <time>2023-04-16T10:13:52Z</time>
      </trkpt>
      <trkpt lat="44.79368" lon="6.98114">
        <ele>2357.29</ele>
        <time>2023-04-16T10:15:12Z</time>
      </trkpt>
      <trkpt lat="44.79362" lon="6.98108">
        <ele>2355.85</ele>
        <time>2023-04-16T10:16:28Z</time>
      </trkpt>
      <trkpt lat="44.79357" lon="6.98102">
        <ele>2360.65</ele>
        <time>2023-04-16T10:18:00Z</time>
      </trkpt>
      <trkpt lat="44.79349" lon="6.98094">
        <ele>2363.54</ele>
        <time>2023-04-16T10:18:26Z</time>
      </trkpt>
      <trkpt lat="44.79345" lon="6.98107">
        <ele>2366.9</ele>
        <time>2023-04-16T10:18:57Z</time>
      </trkpt>
      <trkpt lat="44.79339" lon="6.98121">
        <ele>2369.79</ele>
        <time>2023-04-16T10:19:23Z</time>
      </trkpt>
      <trkpt lat="44.79332" lon="6.98109">
        <ele>2373.15</ele>
        <time>2023-04-16T10:19:59Z</time>
      </trkpt>
      <trkpt lat="44.79328" lon="6.98092">
        <ele>2377.48</ele>
        <time>2023-04-16T10:20:36Z</time>
      </trkpt>
      <trkpt lat="44.79321" lon="6.98083">
        <ele>2381.32</ele>
        <time>2023-04-16T10:21:08Z</time>
      </trkpt>
      <trkpt lat="44.79317" lon="6.98089">
        <ele>2383.25</ele>
        <time>2023-04-16T10:22:27Z</time>
      </trkpt>
      <trkpt lat="44.7931" lon="6.98099">
        <ele>2386.13</ele>
        <time>2023-04-16T10:22:52Z</time>
      </trkpt>
      <trkpt lat="44.79302" lon="6.98107">
        <ele>2388.05</ele>
        <time>2023-04-16T10:23:16Z</time>
      </trkpt>
      <trkpt lat="44.79291" lon="6.981">
        <ele>2390.46</ele>
        <time>2023-04-16T10:23:43Z</time>
      </trkpt>
      <trkpt lat="44.79285" lon="6.98091">
        <ele>2393.34</ele>
        <time>2023-04-16T10:24:07Z</time>
      </trkpt>
      <trkpt lat="44.79275" lon="6.98081">
        <ele>2397.18</ele>
        <time>2023-04-16T10:24:44Z</time>
      </trkpt>
      <trkpt lat="44.79267" lon="6.98068">
        <ele>2400.55</ele>
        <time>2023-04-16T10:25:19Z</time>
      </trkpt>
      <trkpt lat="44.79263" lon="6.98053">
        <ele>2402.95</ele>
        <time>2023-04-16T10:25:46Z</time>
      </trkpt>
      <trkpt lat="44.79254" lon="6.98059">
        <ele>2406.32</ele>
        <time>2023-04-16T10:26:13Z</time>
      </trkpt>
      <trkpt lat="44.7924" lon="6.98061">
        <ele>2409.2</ele>
        <time>2023-04-16T10:26:42Z</time>
      </trkpt>
      <trkpt lat="44.79241" lon="6.98079">
        <ele>2412.57</ele>
        <time>2023-04-16T10:27:20Z</time>
      </trkpt>
      <trkpt lat="44.79241" lon="6.98095">
        <ele>2415.45</ele>
        <time>2023-04-16T10:27:49Z</time>
      </trkpt>
      <trkpt lat="44.79231" lon="6.98091">
        <ele>2417.85</ele>
        <time>2023-04-16T10:28:13Z</time>
      </trkpt>
      <trkpt lat="44.79221" lon="6.98088">
        <ele>2421.7</ele>
        <time>2023-04-16T10:28:46Z</time>
      </trkpt>
      <trkpt lat="44.79208" lon="6.98087">
        <ele>2424.58</ele>
        <time>2023-04-16T10:29:23Z</time>
      </trkpt>
      <trkpt lat="44.79207" lon="6.98103">
        <ele>2427.95</ele>
        <time>2023-04-16T10:29:58Z</time>
      </trkpt>
      <trkpt lat="44.79202" lon="6.98104">
        <ele>2431.31</ele>
        <time>2023-04-16T10:30:30Z</time>
      </trkpt>
      <trkpt lat="44.79193" lon="6.98103">
        <ele>2435.16</ele>
        <time>2023-04-16T10:31:04Z</time>
      </trkpt>
      <trkpt lat="44.79191" lon="6.98116">
        <ele>2439</ele>
        <time>2023-04-16T10:31:39Z</time>
      </trkpt>
      <trkpt lat="44.79182" lon="6.9811">
        <ele>2443.33</ele>
        <time>2023-04-16T10:32:21Z</time>
      </trkpt>
      <trkpt lat="44.79173" lon="6.98097">
        <ele>2447.17</ele>
        <time>2023-04-16T10:32:56Z</time>
      </trkpt>
      <trkpt lat="44.79166" lon="6.98082">
        <ele>2451.02</ele>
        <time>2023-04-16T10:33:30Z</time>
      </trkpt>
      <trkpt lat="44.7916" lon="6.9807">
        <ele>2453.9</ele>
        <time>2023-04-16T10:34:02Z</time>
      </trkpt>
      <trkpt lat="44.79149" lon="6.98066">
        <ele>2457.75</ele>
        <time>2023-04-16T10:34:36Z</time>
      </trkpt>
      <trkpt lat="44.79145" lon="6.98074">
        <ele>2460.63</ele>
        <time>2023-04-16T10:35:08Z</time>
      </trkpt>
      <trkpt lat="44.79144" lon="6.98094">
        <ele>2464.48</ele>
        <time>2023-04-16T10:35:49Z</time>
      </trkpt>
      <trkpt lat="44.79143" lon="6.98107">
        <ele>2466.88</ele>
        <time>2023-04-16T10:36:18Z</time>
      </trkpt>
      <trkpt lat="44.79133" lon="6.98102">
        <ele>2469.28</ele>
        <time>2023-04-16T10:36:45Z</time>
      </trkpt>
      <trkpt lat="44.79123" lon="6.98104">
        <ele>2473.13</ele>
        <time>2023-04-16T10:37:24Z</time>
      </trkpt>
      <trkpt lat="44.79117" lon="6.98115">
        <ele>2477.45</ele>
        <time>2023-04-16T10:37:58Z</time>
      </trkpt>
      <trkpt lat="44.79111" lon="6.98125">
        <ele>2480.82</ele>
        <time>2023-04-16T10:38:36Z</time>
      </trkpt>
      <trkpt lat="44.7911" lon="6.98139">
        <ele>2484.18</ele>
        <time>2023-04-16T10:39:02Z</time>
      </trkpt>
      <trkpt lat="44.79099" lon="6.98156">
        <ele>2486.59</ele>
        <time>2023-04-16T10:39:24Z</time>
      </trkpt>
      <trkpt lat="44.79091" lon="6.98163">
        <ele>2489.95</ele>
        <time>2023-04-16T10:40:00Z</time>
      </trkpt>
      <trkpt lat="44.79083" lon="6.9817">
        <ele>2492.36</ele>
        <time>2023-04-16T10:40:25Z</time>
      </trkpt>
      <trkpt lat="44.79072" lon="6.98178">
        <ele>2496.68</ele>
        <time>2023-04-16T10:41:02Z</time>
      </trkpt>
      <trkpt lat="44.79066" lon="6.98168">
        <ele>2499.08</ele>
        <time>2023-04-16T10:41:25Z</time>
      </trkpt>
      <trkpt lat="44.7906" lon="6.98156">
        <ele>2501.97</ele>
        <time>2023-04-16T10:41:50Z</time>
      </trkpt>
      <trkpt lat="44.79059" lon="6.98143">
        <ele>2507.26</ele>
        <time>2023-04-16T10:42:32Z</time>
      </trkpt>
      <trkpt lat="44.79055" lon="6.98137">
        <ele>2513.02</ele>
        <time>2023-04-16T10:43:46Z</time>
      </trkpt>
      <trkpt lat="44.79045" lon="6.98141">
        <ele>2516.39</ele>
        <time>2023-04-16T10:44:22Z</time>
      </trkpt>
      <trkpt lat="44.79034" lon="6.98141">
        <ele>2519.75</ele>
        <time>2023-04-16T10:45:05Z</time>
      </trkpt>
      <trkpt lat="44.79024" lon="6.98145">
        <ele>2523.6</ele>
        <time>2023-04-16T10:45:48Z</time>
      </trkpt>
      <trkpt lat="44.79021" lon="6.9814">
        <ele>2527.44</ele>
        <time>2023-04-16T10:46:34Z</time>
      </trkpt>
      <trkpt lat="44.79026" lon="6.9813">
        <ele>2530.33</ele>
        <time>2023-04-16T10:47:08Z</time>
      </trkpt>
      <trkpt lat="44.79026" lon="6.98113">
        <ele>2533.69</ele>
        <time>2023-04-16T10:47:48Z</time>
      </trkpt>
      <trkpt lat="44.79024" lon="6.98099">
        <ele>2537.54</ele>
        <time>2023-04-16T10:48:22Z</time>
      </trkpt>
      <trkpt lat="44.79019" lon="6.98081">
        <ele>2540.9</ele>
        <time>2023-04-16T10:48:58Z</time>
      </trkpt>
      <trkpt lat="44.79014" lon="6.98068">
        <ele>2543.31</ele>
        <time>2023-04-16T10:49:22Z</time>
      </trkpt>
      <trkpt lat="44.79009" lon="6.98048">
        <ele>2546.19</ele>
        <time>2023-04-16T10:49:59Z</time>
      </trkpt>
      <trkpt lat="44.79005" lon="6.98032">
        <ele>2548.59</ele>
        <time>2023-04-16T10:50:25Z</time>
      </trkpt>
      <trkpt lat="44.79" lon="6.98017">
        <ele>2552.44</ele>
        <time>2023-04-16T10:50:58Z</time>
      </trkpt>
      <trkpt lat="44.78997" lon="6.98003">
        <ele>2552.92</ele>
        <time>2023-04-16T10:51:22Z</time>
      </trkpt>
      <trkpt lat="44.78998" lon="6.97981">
        <ele>2555.32</ele>
        <time>2023-04-16T10:51:55Z</time>
      </trkpt>
      <trkpt lat="44.78997" lon="6.97967">
        <ele>2556.28</ele>
        <time>2023-04-16T10:52:18Z</time>
      </trkpt>
      <trkpt lat="44.78996" lon="6.97944">
        <ele>2558.21</ele>
        <time>2023-04-16T10:52:48Z</time>
      </trkpt>
      <trkpt lat="44.78999" lon="6.9792">
        <ele>2559.65</ele>
        <time>2023-04-16T10:53:16Z</time>
      </trkpt>
      <trkpt lat="44.79002" lon="6.97899">
        <ele>2560.61</ele>
        <time>2023-04-16T10:53:44Z</time>
      </trkpt>
      <trkpt lat="44.79004" lon="6.97883">
        <ele>2562.05</ele>
        <time>2023-04-16T10:54:08Z</time>
      </trkpt>
      <trkpt lat="44.79007" lon="6.97868">
        <ele>2563.01</ele>
        <time>2023-04-16T10:54:26Z</time>
      </trkpt>
      <trkpt lat="44.79009" lon="6.9785">
        <ele>2563.01</ele>
        <time>2023-04-16T10:54:44Z</time>
      </trkpt>
      <trkpt lat="44.79012" lon="6.97827">
        <ele>2564.93</ele>
        <time>2023-04-16T10:55:10Z</time>
      </trkpt>
      <trkpt lat="44.79016" lon="6.97808">
        <ele>2566.86</ele>
        <time>2023-04-16T10:55:35Z</time>
      </trkpt>
      <trkpt lat="44.79018" lon="6.97791">
        <ele>2568.3</ele>
        <time>2023-04-16T10:56:01Z</time>
      </trkpt>
      <trkpt lat="44.79021" lon="6.97778">
        <ele>2570.7</ele>
        <time>2023-04-16T10:56:24Z</time>
      </trkpt>
      <trkpt lat="44.7903" lon="6.97769">
        <ele>2573.59</ele>
        <time>2023-04-16T10:56:59Z</time>
      </trkpt>
      <trkpt lat="44.79038" lon="6.97754">
        <ele>2577.91</ele>
        <time>2023-04-16T10:57:43Z</time>
      </trkpt>
      <trkpt lat="44.79044" lon="6.97742">
        <ele>2581.76</ele>
        <time>2023-04-16T10:58:18Z</time>
      </trkpt>
      <trkpt lat="44.79044" lon="6.97737">
        <ele>2581.28</ele>
        <time>2023-04-16T11:00:41Z</time>
      </trkpt>
      <trkpt lat="44.79045" lon="6.97739">
        <ele>2582.24</ele>
        <time>2023-04-16T11:06:16Z</time>
      </trkpt>
      <trkpt lat="44.79044" lon="6.97737">
        <ele>2584.64</ele>
        <time>2023-04-16T11:11:10Z</time>
      </trkpt>
      <trkpt lat="44.7905" lon="6.97728">
        <ele>2583.2</ele>
        <time>2023-04-16T11:11:36Z</time>
      </trkpt>
      <trkpt lat="44.79046" lon="6.97712">
        <ele>2580.32</ele>
        <time>2023-04-16T11:11:42Z</time>
      </trkpt>
      <trkpt lat="44.79043" lon="6.97693">
        <ele>2576.95</ele>
        <time>2023-04-16T11:11:46Z</time>
      </trkpt>
      <trkpt lat="44.79035" lon="6.97678">
        <ele>2574.55</ele>
        <time>2023-04-16T11:11:50Z</time>
      </trkpt>
      <trkpt lat="44.79041" lon="6.97666">
        <ele>2569.74</ele>
        <time>2023-04-16T11:11:53Z</time>
      </trkpt>
      <trkpt lat="44.79062" lon="6.97653">
        <ele>2562.05</ele>
        <time>2023-04-16T11:12:10Z</time>
      </trkpt>
      <trkpt lat="44.7906" lon="6.97639">
        <ele>2558.69</ele>
        <time>2023-04-16T11:12:12Z</time>
      </trkpt>
      <trkpt lat="44.79067" lon="6.97629">
        <ele>2553.4</ele>
        <time>2023-04-16T11:12:14Z</time>
      </trkpt>
      <trkpt lat="44.79079" lon="6.97634">
        <ele>2548.11</ele>
        <time>2023-04-16T11:12:16Z</time>
      </trkpt>
      <trkpt lat="44.79087" lon="6.97619">
        <ele>2542.82</ele>
        <time>2023-04-16T11:12:20Z</time>
      </trkpt>
      <trkpt lat="44.79088" lon="6.97604">
        <ele>2539.46</ele>
        <time>2023-04-16T11:12:22Z</time>
      </trkpt>
      <trkpt lat="44.79099" lon="6.97602">
        <ele>2534.17</ele>
        <time>2023-04-16T11:12:24Z</time>
      </trkpt>
      <trkpt lat="44.79112" lon="6.97593">
        <ele>2527.92</ele>
        <time>2023-04-16T11:12:29Z</time>
      </trkpt>
      <trkpt lat="44.79109" lon="6.97575">
        <ele>2524.08</ele>
        <time>2023-04-16T11:12:32Z</time>
      </trkpt>
      <trkpt lat="44.79118" lon="6.97573">
        <ele>2520.23</ele>
        <time>2023-04-16T11:12:34Z</time>
      </trkpt>
      <trkpt lat="44.79125" lon="6.97553">
        <ele>2512.06</ele>
        <time>2023-04-16T11:12:38Z</time>
      </trkpt>
      <trkpt lat="44.7914" lon="6.97542">
        <ele>2505.33</ele>
        <time>2023-04-16T11:12:43Z</time>
      </trkpt>
      <trkpt lat="44.79135" lon="6.97513">
        <ele>2501.49</ele>
        <time>2023-04-16T11:12:47Z</time>
      </trkpt>
      <trkpt lat="44.79135" lon="6.97493">
        <ele>2498.6</ele>
        <time>2023-04-16T11:12:51Z</time>
      </trkpt>
      <trkpt lat="44.79146" lon="6.97478">
        <ele>2493.32</ele>
        <time>2023-04-16T11:14:53Z</time>
      </trkpt>
      <trkpt lat="44.79156" lon="6.97467">
        <ele>2485.15</ele>
        <time>2023-04-16T11:14:57Z</time>
      </trkpt>
      <trkpt lat="44.79162" lon="6.97455">
        <ele>2480.34</ele>
        <time>2023-04-16T11:14:59Z</time>
      </trkpt>
      <trkpt lat="44.79179" lon="6.97452">
        <ele>2469.76</ele>
        <time>2023-04-16T11:15:03Z</time>
      </trkpt>
      <trkpt lat="44.7919" lon="6.97453">
        <ele>2464.96</ele>
        <time>2023-04-16T11:15:05Z</time>
      </trkpt>
      <trkpt lat="44.79209" lon="6.97456">
        <ele>2456.31</ele>
        <time>2023-04-16T11:15:09Z</time>
      </trkpt>
      <trkpt lat="44.79218" lon="6.97459">
        <ele>2452.94</ele>
        <time>2023-04-16T11:15:11Z</time>
      </trkpt>
      <trkpt lat="44.79228" lon="6.97455">
        <ele>2448.13</ele>
        <time>2023-04-16T11:15:13Z</time>
      </trkpt>
      <trkpt lat="44.79237" lon="6.97465">
        <ele>2445.25</ele>
        <time>2023-04-16T11:15:15Z</time>
      </trkpt>
      <trkpt lat="44.79249" lon="6.9746">
        <ele>2441.89</ele>
        <time>2023-04-16T11:15:17Z</time>
      </trkpt>
      <trkpt lat="44.79265" lon="6.97469">
        <ele>2439</ele>
        <time>2023-04-16T11:15:22Z</time>
      </trkpt>
      <trkpt lat="44.79273" lon="6.97479">
        <ele>2439</ele>
        <time>2023-04-16T11:15:53Z</time>
      </trkpt>
      <trkpt lat="44.79276" lon="6.9749">
        <ele>2437.08</ele>
        <time>2023-04-16T11:15:56Z</time>
      </trkpt>
      <trkpt lat="44.79281" lon="6.97509">
        <ele>2435.16</ele>
        <time>2023-04-16T11:16:00Z</time>
      </trkpt>
      <trkpt lat="44.793" lon="6.97509">
        <ele>2427.47</ele>
        <time>2023-04-16T11:16:07Z</time>
      </trkpt>
      <trkpt lat="44.7931" lon="6.97504">
        <ele>2423.14</ele>
        <time>2023-04-16T11:16:10Z</time>
      </trkpt>
      <trkpt lat="44.79319" lon="6.97508">
        <ele>2419.78</ele>
        <time>2023-04-16T11:16:12Z</time>
      </trkpt>
      <trkpt lat="44.79328" lon="6.97504">
        <ele>2415.45</ele>
        <time>2023-04-16T11:16:14Z</time>
      </trkpt>
      <trkpt lat="44.79337" lon="6.97503">
        <ele>2411.6</ele>
        <time>2023-04-16T11:16:16Z</time>
      </trkpt>
      <trkpt lat="44.79346" lon="6.97511">
        <ele>2406.8</ele>
        <time>2023-04-16T11:16:18Z</time>
      </trkpt>
      <trkpt lat="44.79355" lon="6.97503">
        <ele>2402.95</ele>
        <time>2023-04-16T11:16:20Z</time>
      </trkpt>
      <trkpt lat="44.79365" lon="6.97509">
        <ele>2398.63</ele>
        <time>2023-04-16T11:16:22Z</time>
      </trkpt>
      <trkpt lat="44.79376" lon="6.97504">
        <ele>2395.74</ele>
        <time>2023-04-16T11:16:24Z</time>
      </trkpt>
      <trkpt lat="44.79385" lon="6.97508">
        <ele>2392.38</ele>
        <time>2023-04-16T11:16:26Z</time>
      </trkpt>
      <trkpt lat="44.79413" lon="6.97521">
        <ele>2389.01</ele>
        <time>2023-04-16T11:16:31Z</time>
      </trkpt>
      <trkpt lat="44.79439" lon="6.97509">
        <ele>2384.69</ele>
        <time>2023-04-16T11:16:34Z</time>
      </trkpt>
      <trkpt lat="44.79452" lon="6.97491">
        <ele>2381.32</ele>
        <time>2023-04-16T11:16:37Z</time>
      </trkpt>
      <trkpt lat="44.79465" lon="6.97495">
        <ele>2378.92</ele>
        <time>2023-04-16T11:16:44Z</time>
      </trkpt>
      <trkpt lat="44.79473" lon="6.97493">
        <ele>2377</ele>
        <time>2023-04-16T11:16:49Z</time>
      </trkpt>
      <trkpt lat="44.7949" lon="6.97472">
        <ele>2375.55</ele>
        <time>2023-04-16T11:17:10Z</time>
      </trkpt>
      <trkpt lat="44.79504" lon="6.9746">
        <ele>2374.11</ele>
        <time>2023-04-16T11:17:32Z</time>
      </trkpt>
      <trkpt lat="44.79504" lon="6.97446">
        <ele>2373.63</ele>
        <time>2023-04-16T11:17:40Z</time>
      </trkpt>
      <trkpt lat="44.79503" lon="6.97416">
        <ele>2370.27</ele>
        <time>2023-04-16T11:17:49Z</time>
      </trkpt>
      <trkpt lat="44.79511" lon="6.97395">
        <ele>2366.9</ele>
        <time>2023-04-16T11:17:55Z</time>
      </trkpt>
      <trkpt lat="44.79514" lon="6.9738">
        <ele>2366.42</ele>
        <time>2023-04-16T11:18:01Z</time>
      </trkpt>
      <trkpt lat="44.79524" lon="6.97354">
        <ele>2361.14</ele>
        <time>2023-04-16T11:18:06Z</time>
      </trkpt>
      <trkpt lat="44.79539" lon="6.97326">
        <ele>2353.93</ele>
        <time>2023-04-16T11:18:13Z</time>
      </trkpt>
      <trkpt lat="44.79551" lon="6.97329">
        <ele>2351.04</ele>
        <time>2023-04-16T11:18:15Z</time>
      </trkpt>
      <trkpt lat="44.79559" lon="6.97314">
        <ele>2346.72</ele>
        <time>2023-04-16T11:18:18Z</time>
      </trkpt>
      <trkpt lat="44.79567" lon="6.97297">
        <ele>2342.87</ele>
        <time>2023-04-16T11:18:22Z</time>
      </trkpt>
      <trkpt lat="44.79579" lon="6.97273">
        <ele>2335.66</ele>
        <time>2023-04-16T11:18:29Z</time>
      </trkpt>
      <trkpt lat="44.79589" lon="6.97264">
        <ele>2329.41</ele>
        <time>2023-04-16T11:18:35Z</time>
      </trkpt>
      <trkpt lat="44.79594" lon="6.97244">
        <ele>2325.09</ele>
        <time>2023-04-16T11:18:38Z</time>
      </trkpt>
      <trkpt lat="44.79599" lon="6.97232">
        <ele>2323.64</ele>
        <time>2023-04-16T11:18:40Z</time>
      </trkpt>
      <trkpt lat="44.79603" lon="6.97212">
        <ele>2319.32</ele>
        <time>2023-04-16T11:18:43Z</time>
      </trkpt>
      <trkpt lat="44.79619" lon="6.97186">
        <ele>2313.55</ele>
        <time>2023-04-16T11:18:48Z</time>
      </trkpt>
      <trkpt lat="44.79638" lon="6.97158">
        <ele>2308.26</ele>
        <time>2023-04-16T11:18:51Z</time>
      </trkpt>
      <trkpt lat="44.79652" lon="6.97152">
        <ele>2304.42</ele>
        <time>2023-04-16T11:18:55Z</time>
      </trkpt>
      <trkpt lat="44.7966" lon="6.97169">
        <ele>2301.53</ele>
        <time>2023-04-16T11:19:04Z</time>
      </trkpt>
      <trkpt lat="44.79669" lon="6.97152">
        <ele>2300.57</ele>
        <time>2023-04-16T11:20:01Z</time>
      </trkpt>
      <trkpt lat="44.79684" lon="6.97153">
        <ele>2296.73</ele>
        <time>2023-04-16T11:20:06Z</time>
      </trkpt>
      <trkpt lat="44.79691" lon="6.9715">
        <ele>2293.84</ele>
        <time>2023-04-16T11:20:10Z</time>
      </trkpt>
      <trkpt lat="44.79704" lon="6.97141">
        <ele>2288.56</ele>
        <time>2023-04-16T11:20:16Z</time>
      </trkpt>
      <trkpt lat="44.79718" lon="6.97129">
        <ele>2285.19</ele>
        <time>2023-04-16T11:20:20Z</time>
      </trkpt>
      <trkpt lat="44.79717" lon="6.97142">
        <ele>2283.27</ele>
        <time>2023-04-16T11:20:30Z</time>
      </trkpt>
      <trkpt lat="44.7973" lon="6.97134">
        <ele>2281.35</ele>
        <time>2023-04-16T11:20:37Z</time>
      </trkpt>
      <trkpt lat="44.79721" lon="6.97171">
        <ele>2277.5</ele>
        <time>2023-04-16T11:20:59Z</time>
      </trkpt>
      <trkpt lat="44.7973" lon="6.97178">
        <ele>2273.66</ele>
        <time>2023-04-16T11:21:04Z</time>
      </trkpt>
      <trkpt lat="44.7973" lon="6.97196">
        <ele>2269.81</ele>
        <time>2023-04-16T11:21:07Z</time>
      </trkpt>
      <trkpt lat="44.79729" lon="6.97211">
        <ele>2265</ele>
        <time>2023-04-16T11:21:10Z</time>
      </trkpt>
      <trkpt lat="44.7974" lon="6.97209">
        <ele>2261.64</ele>
        <time>2023-04-16T11:21:13Z</time>
      </trkpt>
      <trkpt lat="44.79744" lon="6.9722">
        <ele>2259.24</ele>
        <time>2023-04-16T11:21:16Z</time>
      </trkpt>
      <trkpt lat="44.79742" lon="6.97233">
        <ele>2256.35</ele>
        <time>2023-04-16T11:21:20Z</time>
      </trkpt>
      <trkpt lat="44.79739" lon="6.97245">
        <ele>2255.87</ele>
        <time>2023-04-16T11:21:24Z</time>
      </trkpt>
      <trkpt lat="44.79735" lon="6.97257">
        <ele>2254.43</ele>
        <time>2023-04-16T11:21:28Z</time>
      </trkpt>
      <trkpt lat="44.79734" lon="6.97272">
        <ele>2252.51</ele>
        <time>2023-04-16T11:21:33Z</time>
      </trkpt>
      <trkpt lat="44.79741" lon="6.97282">
        <ele>2249.14</ele>
        <time>2023-04-16T11:21:37Z</time>
      </trkpt>
      <trkpt lat="44.79744" lon="6.97298">
        <ele>2245.78</ele>
        <time>2023-04-16T11:21:43Z</time>
      </trkpt>
      <trkpt lat="44.7974" lon="6.9731">
        <ele>2243.85</ele>
        <time>2023-04-16T11:21:50Z</time>
      </trkpt>
      <trkpt lat="44.79737" lon="6.97328">
        <ele>2240.97</ele>
        <time>2023-04-16T11:21:54Z</time>
      </trkpt>
      <trkpt lat="44.79732" lon="6.97342">
        <ele>2238.57</ele>
        <time>2023-04-16T11:22:01Z</time>
      </trkpt>
      <trkpt lat="44.79745" lon="6.97362">
        <ele>2235.2</ele>
        <time>2023-04-16T11:22:43Z</time>
      </trkpt>
      <trkpt lat="44.79746" lon="6.97377">
        <ele>2232.32</ele>
        <time>2023-04-16T11:22:46Z</time>
      </trkpt>
      <trkpt lat="44.7976" lon="6.9737">
        <ele>2228.95</ele>
        <time>2023-04-16T11:22:49Z</time>
      </trkpt>
      <trkpt lat="44.7977" lon="6.97383">
        <ele>2224.15</ele>
        <time>2023-04-16T11:22:53Z</time>
      </trkpt>
      <trkpt lat="44.79786" lon="6.97383">
        <ele>2217.9</ele>
        <time>2023-04-16T11:23:00Z</time>
      </trkpt>
      <trkpt lat="44.79802" lon="6.97375">
        <ele>2212.13</ele>
        <time>2023-04-16T11:23:06Z</time>
      </trkpt>
      <trkpt lat="44.79822" lon="6.97376">
        <ele>2205.4</ele>
        <time>2023-04-16T11:23:13Z</time>
      </trkpt>
      <trkpt lat="44.7983" lon="6.97384">
        <ele>2202.52</ele>
        <time>2023-04-16T11:23:17Z</time>
      </trkpt>
      <trkpt lat="44.79847" lon="6.97388">
        <ele>2197.23</ele>
        <time>2023-04-16T11:23:22Z</time>
      </trkpt>
      <trkpt lat="44.79853" lon="6.97408">
        <ele>2193.39</ele>
        <time>2023-04-16T11:23:26Z</time>
      </trkpt>
      <trkpt lat="44.79868" lon="6.97402">
        <ele>2190.5</ele>
        <time>2023-04-16T11:23:30Z</time>
      </trkpt>
      <trkpt lat="44.79875" lon="6.97414">
        <ele>2187.14</ele>
        <time>2023-04-16T11:23:33Z</time>
      </trkpt>
      <trkpt lat="44.79886" lon="6.97402">
        <ele>2184.73</ele>
        <time>2023-04-16T11:23:37Z</time>
      </trkpt>
      <trkpt lat="44.79898" lon="6.97409">
        <ele>2181.37</ele>
        <time>2023-04-16T11:23:40Z</time>
      </trkpt>
      <trkpt lat="44.79897" lon="6.97422">
        <ele>2178.48</ele>
        <time>2023-04-16T11:23:42Z</time>
      </trkpt>
      <trkpt lat="44.79895" lon="6.97435">
        <ele>2177.04</ele>
        <time>2023-04-16T11:23:46Z</time>
      </trkpt>
      <trkpt lat="44.79894" lon="6.97441">
        <ele>2175.6</ele>
        <time>2023-04-16T11:24:56Z</time>
      </trkpt>
      <trkpt lat="44.7991" lon="6.97447">
        <ele>2172.24</ele>
        <time>2023-04-16T11:25:04Z</time>
      </trkpt>
      <trkpt lat="44.7992" lon="6.97446">
        <ele>2168.39</ele>
        <time>2023-04-16T11:25:13Z</time>
      </trkpt>
      <trkpt lat="44.79923" lon="6.97434">
        <ele>2166.95</ele>
        <time>2023-04-16T11:25:33Z</time>
      </trkpt>
      <trkpt lat="44.79932" lon="6.97431">
        <ele>2164.06</ele>
        <time>2023-04-16T11:25:38Z</time>
      </trkpt>
      <trkpt lat="44.79932" lon="6.974">
        <ele>2161.18</ele>
        <time>2023-04-16T11:26:09Z</time>
      </trkpt>
      <trkpt lat="44.79948" lon="6.97405">
        <ele>2157.82</ele>
        <time>2023-04-16T11:26:36Z</time>
      </trkpt>
      <trkpt lat="44.79959" lon="6.97412">
        <ele>2154.93</ele>
        <time>2023-04-16T11:26:41Z</time>
      </trkpt>
      <trkpt lat="44.79972" lon="6.97418">
        <ele>2151.57</ele>
        <time>2023-04-16T11:26:45Z</time>
      </trkpt>
      <trkpt lat="44.79997" lon="6.9741">
        <ele>2146.76</ele>
        <time>2023-04-16T11:26:53Z</time>
      </trkpt>
      <trkpt lat="44.8001" lon="6.97404">
        <ele>2144.84</ele>
        <time>2023-04-16T11:27:00Z</time>
      </trkpt>
      <trkpt lat="44.80033" lon="6.97382">
        <ele>2140.51</ele>
        <time>2023-04-16T11:27:09Z</time>
      </trkpt>
      <trkpt lat="44.8004" lon="6.97373">
        <ele>2138.59</ele>
        <time>2023-04-16T11:27:25Z</time>
      </trkpt>
      <trkpt lat="44.80051" lon="6.97359">
        <ele>2136.67</ele>
        <time>2023-04-16T11:27:34Z</time>
      </trkpt>
      <trkpt lat="44.80066" lon="6.9735">
        <ele>2135.71</ele>
        <time>2023-04-16T11:27:40Z</time>
      </trkpt>
      <trkpt lat="44.80083" lon="6.97336">
        <ele>2130.9</ele>
        <time>2023-04-16T11:27:45Z</time>
      </trkpt>
      <trkpt lat="44.80096" lon="6.97338">
        <ele>2128.02</ele>
        <time>2023-04-16T11:27:48Z</time>
      </trkpt>
      <trkpt lat="44.80112" lon="6.97328">
        <ele>2126.09</ele>
        <time>2023-04-16T11:27:53Z</time>
      </trkpt>
      <trkpt lat="44.80125" lon="6.97326">
        <ele>2124.65</ele>
        <time>2023-04-16T11:27:55Z</time>
      </trkpt>
      <trkpt lat="44.80136" lon="6.97317">
        <ele>2121.77</ele>
        <time>2023-04-16T11:27:58Z</time>
      </trkpt>
      <trkpt lat="44.80145" lon="6.97312">
        <ele>2119.84</ele>
        <time>2023-04-16T11:28:00Z</time>
      </trkpt>
      <trkpt lat="44.80151" lon="6.97322">
        <ele>2117.44</ele>
        <time>2023-04-16T11:28:03Z</time>
      </trkpt>
      <trkpt lat="44.8016" lon="6.97331">
        <ele>2114.56</ele>
        <time>2023-04-16T11:28:06Z</time>
      </trkpt>
      <trkpt lat="44.80171" lon="6.97326">
        <ele>2112.63</ele>
        <time>2023-04-16T11:28:09Z</time>
      </trkpt>
      <trkpt lat="44.80186" lon="6.97313">
        <ele>2109.27</ele>
        <time>2023-04-16T11:28:13Z</time>
      </trkpt>
      <trkpt lat="44.80199" lon="6.97298">
        <ele>2108.31</ele>
        <time>2023-04-16T11:28:17Z</time>
      </trkpt>
      <trkpt lat="44.80214" lon="6.97316">
        <ele>2101.58</ele>
        <time>2023-04-16T11:28:24Z</time>
      </trkpt>
      <trkpt lat="44.80222" lon="6.97304">
        <ele>2098.21</ele>
        <time>2023-04-16T11:28:27Z</time>
      </trkpt>
      <trkpt lat="44.80235" lon="6.97284">
        <ele>2096.29</ele>
        <time>2023-04-16T11:28:33Z</time>
      </trkpt>
      <trkpt lat="44.8025" lon="6.97273">
        <ele>2093.41</ele>
        <time>2023-04-16T11:28:39Z</time>
      </trkpt>
      <trkpt lat="44.80258" lon="6.97271">
        <ele>2092.45</ele>
        <time>2023-04-16T11:29:11Z</time>
      </trkpt>
      <trkpt lat="44.80271" lon="6.97241">
        <ele>2090.52</ele>
        <time>2023-04-16T11:29:47Z</time>
      </trkpt>
      <trkpt lat="44.80281" lon="6.97213">
        <ele>2087.16</ele>
        <time>2023-04-16T11:29:55Z</time>
      </trkpt>
      <trkpt lat="44.80285" lon="6.97198">
        <ele>2086.2</ele>
        <time>2023-04-16T11:30:01Z</time>
      </trkpt>
      <trkpt lat="44.80289" lon="6.97187">
        <ele>2084.76</ele>
        <time>2023-04-16T11:30:05Z</time>
      </trkpt>
      <trkpt lat="44.80296" lon="6.97179">
        <ele>2083.31</ele>
        <time>2023-04-16T11:30:08Z</time>
      </trkpt>
      <trkpt lat="44.80314" lon="6.97149">
        <ele>2081.39</ele>
        <time>2023-04-16T11:30:18Z</time>
      </trkpt>
      <trkpt lat="44.80331" lon="6.97127">
        <ele>2079.47</ele>
        <time>2023-04-16T11:30:28Z</time>
      </trkpt>
      <trkpt lat="44.80352" lon="6.97087">
        <ele>2076.1</ele>
        <time>2023-04-16T11:30:37Z</time>
      </trkpt>
      <trkpt lat="44.80356" lon="6.97071">
        <ele>2074.66</ele>
        <time>2023-04-16T11:30:40Z</time>
      </trkpt>
      <trkpt lat="44.80366" lon="6.97037">
        <ele>2073.22</ele>
        <time>2023-04-16T11:30:51Z</time>
      </trkpt>
      <trkpt lat="44.80384" lon="6.97025">
        <ele>2068.89</ele>
        <time>2023-04-16T11:31:39Z</time>
      </trkpt>
      <trkpt lat="44.80397" lon="6.97012">
        <ele>2066.01</ele>
        <time>2023-04-16T11:31:44Z</time>
      </trkpt>
      <trkpt lat="44.80408" lon="6.96996">
        <ele>2063.13</ele>
        <time>2023-04-16T11:31:50Z</time>
      </trkpt>
      <trkpt lat="44.80425" lon="6.96987">
        <ele>2059.76</ele>
        <time>2023-04-16T11:31:56Z</time>
      </trkpt>
      <trkpt lat="44.80432" lon="6.96992">
        <ele>2055.44</ele>
        <time>2023-04-16T11:32:03Z</time>
      </trkpt>
      <trkpt lat="44.8045" lon="6.96984">
        <ele>2051.11</ele>
        <time>2023-04-16T11:32:09Z</time>
      </trkpt>
      <trkpt lat="44.8046" lon="6.96979">
        <ele>2049.67</ele>
        <time>2023-04-16T11:32:13Z</time>
      </trkpt>
      <trkpt lat="44.80469" lon="6.96988">
        <ele>2047.26</ele>
        <time>2023-04-16T11:32:17Z</time>
      </trkpt>
      <trkpt lat="44.80481" lon="6.96979">
        <ele>2044.38</ele>
        <time>2023-04-16T11:32:23Z</time>
      </trkpt>
      <trkpt lat="44.80506" lon="6.96961">
        <ele>2041.02</ele>
        <time>2023-04-16T11:32:35Z</time>
      </trkpt>
      <trkpt lat="44.80515" lon="6.96944">
        <ele>2039.09</ele>
        <time>2023-04-16T11:32:39Z</time>
      </trkpt>
      <trkpt lat="44.80534" lon="6.96938">
        <ele>2037.17</ele>
        <time>2023-04-16T11:33:20Z</time>
      </trkpt>
      <trkpt lat="44.80549" lon="6.96954">
        <ele>2033.33</ele>
        <time>2023-04-16T11:33:25Z</time>
      </trkpt>
      <trkpt lat="44.80563" lon="6.96948">
        <ele>2029.48</ele>
        <time>2023-04-16T11:33:28Z</time>
      </trkpt>
      <trkpt lat="44.80576" lon="6.96958">
        <ele>2025.15</ele>
        <time>2023-04-16T11:33:31Z</time>
      </trkpt>
      <trkpt lat="44.80586" lon="6.96953">
        <ele>2021.31</ele>
        <time>2023-04-16T11:33:33Z</time>
      </trkpt>
      <trkpt lat="44.80605" lon="6.96959">
        <ele>2017.46</ele>
        <time>2023-04-16T11:33:36Z</time>
      </trkpt>
      <trkpt lat="44.80618" lon="6.96949">
        <ele>2014.1</ele>
        <time>2023-04-16T11:33:38Z</time>
      </trkpt>
      <trkpt lat="44.8063" lon="6.96942">
        <ele>2012.66</ele>
        <time>2023-04-16T11:33:40Z</time>
      </trkpt>
      <trkpt lat="44.8064" lon="6.96947">
        <ele>2009.29</ele>
        <time>2023-04-16T11:33:42Z</time>
      </trkpt>
      <trkpt lat="44.8065" lon="6.96941">
        <ele>2006.89</ele>
        <time>2023-04-16T11:33:44Z</time>
      </trkpt>
      <trkpt lat="44.8066" lon="6.96936">
        <ele>2004.49</ele>
        <time>2023-04-16T11:33:46Z</time>
      </trkpt>
      <trkpt lat="44.80671" lon="6.96935">
        <ele>2002.08</ele>
        <time>2023-04-16T11:33:48Z</time>
      </trkpt>
      <trkpt lat="44.80678" lon="6.96926">
        <ele>2000.64</ele>
        <time>2023-04-16T11:33:50Z</time>
      </trkpt>
      <trkpt lat="44.80694" lon="6.96929">
        <ele>1995.83</ele>
        <time>2023-04-16T11:33:53Z</time>
      </trkpt>
      <trkpt lat="44.80705" lon="6.96924">
        <ele>1992.47</ele>
        <time>2023-04-16T11:33:55Z</time>
      </trkpt>
      <trkpt lat="44.80716" lon="6.9691">
        <ele>1988.62</ele>
        <time>2023-04-16T11:33:58Z</time>
      </trkpt>
      <trkpt lat="44.80726" lon="6.96917">
        <ele>1985.26</ele>
        <time>2023-04-16T11:34:00Z</time>
      </trkpt>
      <trkpt lat="44.80737" lon="6.96916">
        <ele>1981.9</ele>
        <time>2023-04-16T11:34:02Z</time>
      </trkpt>
      <trkpt lat="44.80745" lon="6.96907">
        <ele>1979.01</ele>
        <time>2023-04-16T11:34:04Z</time>
      </trkpt>
      <trkpt lat="44.80758" lon="6.96913">
        <ele>1974.69</ele>
        <time>2023-04-16T11:34:07Z</time>
      </trkpt>
      <trkpt lat="44.80765" lon="6.96906">
        <ele>1971.32</ele>
        <time>2023-04-16T11:34:09Z</time>
      </trkpt>
      <trkpt lat="44.80782" lon="6.96901">
        <ele>1964.11</ele>
        <time>2023-04-16T11:34:13Z</time>
      </trkpt>
      <trkpt lat="44.80791" lon="6.96896">
        <ele>1961.23</ele>
        <time>2023-04-16T11:34:15Z</time>
      </trkpt>
      <trkpt lat="44.80802" lon="6.96899">
        <ele>1957.38</ele>
        <time>2023-04-16T11:34:17Z</time>
      </trkpt>
      <trkpt lat="44.80818" lon="6.9689">
        <ele>1950.65</ele>
        <time>2023-04-16T11:34:22Z</time>
      </trkpt>
      <trkpt lat="44.80827" lon="6.96886">
        <ele>1945.85</ele>
        <time>2023-04-16T11:34:25Z</time>
      </trkpt>
      <trkpt lat="44.80841" lon="6.96876">
        <ele>1941.52</ele>
        <time>2023-04-16T11:34:29Z</time>
      </trkpt>
      <trkpt lat="44.80842" lon="6.96863">
        <ele>1937.67</ele>
        <time>2023-04-16T11:35:32Z</time>
      </trkpt>
      <trkpt lat="44.80851" lon="6.96848">
        <ele>1933.35</ele>
        <time>2023-04-16T11:35:49Z</time>
      </trkpt>
      <trkpt lat="44.80861" lon="6.96849">
        <ele>1928.54</ele>
        <time>2023-04-16T11:35:57Z</time>
      </trkpt>
      <trkpt lat="44.8087" lon="6.96848">
        <ele>1924.7</ele>
        <time>2023-04-16T11:36:08Z</time>
      </trkpt>
      <trkpt lat="44.8088" lon="6.96848">
        <ele>1920.85</ele>
        <time>2023-04-16T11:36:14Z</time>
      </trkpt>
      <trkpt lat="44.8089" lon="6.96849">
        <ele>1915.08</ele>
        <time>2023-04-16T11:36:34Z</time>
      </trkpt>
      <trkpt lat="44.80899" lon="6.96853">
        <ele>1912.68</ele>
        <time>2023-04-16T11:36:48Z</time>
      </trkpt>
      <trkpt lat="44.80915" lon="6.96866">
        <ele>1907.87</ele>
        <time>2023-04-16T11:36:58Z</time>
      </trkpt>
      <trkpt lat="44.80924" lon="6.96875">
        <ele>1904.03</ele>
        <time>2023-04-16T11:37:05Z</time>
      </trkpt>
      <trkpt lat="44.80931" lon="6.96885">
        <ele>1900.66</ele>
        <time>2023-04-16T11:37:11Z</time>
      </trkpt>
      <trkpt lat="44.80947" lon="6.96874">
        <ele>1894.42</ele>
        <time>2023-04-16T11:37:21Z</time>
      </trkpt>
      <trkpt lat="44.80958" lon="6.96878">
        <ele>1889.13</ele>
        <time>2023-04-16T11:37:24Z</time>
      </trkpt>
      <trkpt lat="44.80988" lon="6.96892">
        <ele>1883.84</ele>
        <time>2023-04-16T11:37:30Z</time>
      </trkpt>
      <trkpt lat="44.80989" lon="6.96877">
        <ele>1882.4</ele>
        <time>2023-04-16T11:37:37Z</time>
      </trkpt>
      <trkpt lat="44.81009" lon="6.96848">
        <ele>1879.03</ele>
        <time>2023-04-16T11:37:46Z</time>
      </trkpt>
      <trkpt lat="44.81017" lon="6.96838">
        <ele>1878.07</ele>
        <time>2023-04-16T11:37:49Z</time>
      </trkpt>
      <trkpt lat="44.81026" lon="6.96832">
        <ele>1877.11</ele>
        <time>2023-04-16T11:37:56Z</time>
      </trkpt>
      <trkpt lat="44.81028" lon="6.96818">
        <ele>1876.63</ele>
        <time>2023-04-16T11:38:01Z</time>
      </trkpt>
      <trkpt lat="44.81046" lon="6.96814">
        <ele>1875.19</ele>
        <time>2023-04-16T11:38:10Z</time>
      </trkpt>
      <trkpt lat="44.8106" lon="6.96808">
        <ele>1874.23</ele>
        <time>2023-04-16T11:38:22Z</time>
      </trkpt>
      <trkpt lat="44.81067" lon="6.96796">
        <ele>1873.27</ele>
        <time>2023-04-16T11:39:38Z</time>
      </trkpt>
      <trkpt lat="44.81073" lon="6.96785">
        <ele>1872.79</ele>
        <time>2023-04-16T11:39:50Z</time>
      </trkpt>
      <trkpt lat="44.81084" lon="6.96765">
        <ele>1870.86</ele>
        <time>2023-04-16T11:40:16Z</time>
      </trkpt>
      <trkpt lat="44.81093" lon="6.96762">
        <ele>1870.38</ele>
        <time>2023-04-16T11:40:30Z</time>
      </trkpt>
      <trkpt lat="44.81102" lon="6.96758">
        <ele>1868.94</ele>
        <time>2023-04-16T11:40:53Z</time>
      </trkpt>
      <trkpt lat="44.81102" lon="6.96756">
        <ele>1862.21</ele>
        <time>2023-04-16T11:42:20Z</time>
      </trkpt>
      <trkpt lat="44.81101" lon="6.96751">
        <ele>1867.5</ele>
        <time>2023-04-16T11:44:45Z</time>
      </trkpt>
      <trkpt lat="44.81101" lon="6.96743">
        <ele>1867.02</ele>
        <time>2023-04-16T11:47:28Z</time>
      </trkpt>
      <trkpt lat="44.81101" lon="6.96743">
        <ele>1866.54</ele>
        <time>2023-04-16T11:50:41Z</time>
      </trkpt>
      <trkpt lat="44.81103" lon="6.96745">
        <ele>1866.54</ele>
        <time>2023-04-16T11:52:25Z</time>
      </trkpt>
      <trkpt lat="44.81103" lon="6.96747">
        <ele>1866.06</ele>
        <time>2023-04-16T11:54:37Z</time>
      </trkpt>
      <trkpt lat="44.81105" lon="6.96749">
        <ele>1865.09</ele>
        <time>2023-04-16T11:57:34Z</time>
      </trkpt>
      <trkpt lat="44.81103" lon="6.96743">
        <ele>1864.13</ele>
        <time>2023-04-16T11:59:26Z</time>
      </trkpt>
      <trkpt lat="44.81105" lon="6.96747">
        <ele>1864.13</ele>
        <time>2023-04-16T12:02:37Z</time>
      </trkpt>
      <trkpt lat="44.81097" lon="6.96747">
        <ele>1863.17</ele>
        <time>2023-04-16T12:03:57Z</time>
      </trkpt>
      <trkpt lat="44.81101" lon="6.96756">
        <ele>1863.17</ele>
        <time>2023-04-16T12:04:59Z</time>
      </trkpt>
      <trkpt lat="44.81102" lon="6.96747">
        <ele>1863.17</ele>
        <time>2023-04-16T12:06:18Z</time>
      </trkpt>
      <trkpt lat="44.81112" lon="6.96759">
        <ele>1865.09</ele>
        <time>2023-04-16T12:06:46Z</time>
      </trkpt>
      <trkpt lat="44.81124" lon="6.96755">
        <ele>1861.73</ele>
        <time>2023-04-16T12:07:50Z</time>
      </trkpt>
      <trkpt lat="44.81134" lon="6.96753">
        <ele>1857.89</ele>
        <time>2023-04-16T12:08:18Z</time>
      </trkpt>
      <trkpt lat="44.81146" lon="6.96747">
        <ele>1855.96</ele>
        <time>2023-04-16T12:08:34Z</time>
      </trkpt>
      <trkpt lat="44.81159" lon="6.96737">
        <ele>1855.48</ele>
        <time>2023-04-16T12:08:49Z</time>
      </trkpt>
      <trkpt lat="44.81169" lon="6.96729">
        <ele>1855.48</ele>
        <time>2023-04-16T12:09:02Z</time>
      </trkpt>
      <trkpt lat="44.81183" lon="6.96722">
        <ele>1855.48</ele>
        <time>2023-04-16T12:09:18Z</time>
      </trkpt>
      <trkpt lat="44.81193" lon="6.96719">
        <ele>1855</ele>
        <time>2023-04-16T12:09:58Z</time>
      </trkpt>
      <trkpt lat="44.81202" lon="6.96701">
        <ele>1855</ele>
        <time>2023-04-16T12:10:28Z</time>
      </trkpt>
      <trkpt lat="44.81201" lon="6.96688">
        <ele>1855</ele>
        <time>2023-04-16T12:10:40Z</time>
      </trkpt>
      <trkpt lat="44.81195" lon="6.96659">
        <ele>1854.52</ele>
        <time>2023-04-16T12:11:02Z</time>
      </trkpt>
      <trkpt lat="44.81186" lon="6.96634">
        <ele>1854.04</ele>
        <time>2023-04-16T12:11:23Z</time>
      </trkpt>
      <trkpt lat="44.81182" lon="6.96615">
        <ele>1853.08</ele>
        <time>2023-04-16T12:11:38Z</time>
      </trkpt>
      <trkpt lat="44.81173" lon="6.96583">
        <ele>1852.12</ele>
        <time>2023-04-16T12:12:00Z</time>
      </trkpt>
      <trkpt lat="44.81169" lon="6.96568">
        <ele>1851.64</ele>
        <time>2023-04-16T12:12:10Z</time>
      </trkpt>
      <trkpt lat="44.81164" lon="6.96538">
        <ele>1851.64</ele>
        <time>2023-04-16T12:12:32Z</time>
      </trkpt>
      <trkpt lat="44.81162" lon="6.96513">
        <ele>1850.68</ele>
        <time>2023-04-16T12:12:49Z</time>
      </trkpt>
      <trkpt lat="44.81159" lon="6.96486">
        <ele>1850.19</ele>
        <time>2023-04-16T12:13:07Z</time>
      </trkpt>
      <trkpt lat="44.81156" lon="6.96451">
        <ele>1849.71</ele>
        <time>2023-04-16T12:13:30Z</time>
      </trkpt>
      <trkpt lat="44.81154" lon="6.96419">
        <ele>1848.75</ele>
        <time>2023-04-16T12:13:52Z</time>
      </trkpt>
      <trkpt lat="44.81154" lon="6.96388">
        <ele>1847.79</ele>
        <time>2023-04-16T12:14:19Z</time>
      </trkpt>
      <trkpt lat="44.81153" lon="6.96367">
        <ele>1846.83</ele>
        <time>2023-04-16T12:14:35Z</time>
      </trkpt>
      <trkpt lat="44.81152" lon="6.96353">
        <ele>1846.83</ele>
        <time>2023-04-16T12:14:49Z</time>
      </trkpt>
      <trkpt lat="44.81152" lon="6.96329">
        <ele>1845.87</ele>
        <time>2023-04-16T12:15:07Z</time>
      </trkpt>
      <trkpt lat="44.81151" lon="6.9631">
        <ele>1845.39</ele>
        <time>2023-04-16T12:15:22Z</time>
      </trkpt>
      <trkpt lat="44.81158" lon="6.96279">
        <ele>1844.43</ele>
        <time>2023-04-16T12:15:49Z</time>
      </trkpt>
      <trkpt lat="44.81168" lon="6.96256">
        <ele>1843.95</ele>
        <time>2023-04-16T12:16:07Z</time>
      </trkpt>
      <trkpt lat="44.81176" lon="6.96233">
        <ele>1842.5</ele>
        <time>2023-04-16T12:16:24Z</time>
      </trkpt>
      <trkpt lat="44.81182" lon="6.96218">
        <ele>1842.5</ele>
        <time>2023-04-16T12:16:36Z</time>
      </trkpt>
      <trkpt lat="44.81187" lon="6.96198">
        <ele>1841.54</ele>
        <time>2023-04-16T12:16:50Z</time>
      </trkpt>
      <trkpt lat="44.81192" lon="6.96174">
        <ele>1840.1</ele>
        <time>2023-04-16T12:17:06Z</time>
      </trkpt>
      <trkpt lat="44.81189" lon="6.96153">
        <ele>1839.14</ele>
        <time>2023-04-16T12:17:23Z</time>
      </trkpt>
      <trkpt lat="44.81187" lon="6.9614">
        <ele>1838.66</ele>
        <time>2023-04-16T12:17:34Z</time>
      </trkpt>
      <trkpt lat="44.81182" lon="6.96118">
        <ele>1836.74</ele>
        <time>2023-04-16T12:17:51Z</time>
      </trkpt>
      <trkpt lat="44.81179" lon="6.9609">
        <ele>1835.29</ele>
        <time>2023-04-16T12:18:10Z</time>
      </trkpt>
      <trkpt lat="44.81179" lon="6.96066">
        <ele>1834.33</ele>
        <time>2023-04-16T12:18:26Z</time>
      </trkpt>
      <trkpt lat="44.81186" lon="6.96043">
        <ele>1832.89</ele>
        <time>2023-04-16T12:18:42Z</time>
      </trkpt>
      <trkpt lat="44.81199" lon="6.96011">
        <ele>1830.01</ele>
        <time>2023-04-16T12:19:07Z</time>
      </trkpt>
      <trkpt lat="44.81209" lon="6.95993">
        <ele>1828.56</ele>
        <time>2023-04-16T12:19:22Z</time>
      </trkpt>
      <trkpt lat="44.81217" lon="6.95979">
        <ele>1827.12</ele>
        <time>2023-04-16T12:19:35Z</time>
      </trkpt>
      <trkpt lat="44.81226" lon="6.95959">
        <ele>1825.2</ele>
        <time>2023-04-16T12:19:50Z</time>
      </trkpt>
      <trkpt lat="44.81232" lon="6.95937">
        <ele>1823.76</ele>
        <time>2023-04-16T12:20:06Z</time>
      </trkpt>
      <trkpt lat="44.81235" lon="6.95907">
        <ele>1822.32</ele>
        <time>2023-04-16T12:20:27Z</time>
      </trkpt>
      <trkpt lat="44.81236" lon="6.95881">
        <ele>1820.87</ele>
        <time>2023-04-16T12:20:45Z</time>
      </trkpt>
      <trkpt lat="44.81237" lon="6.9586">
        <ele>1819.43</ele>
        <time>2023-04-16T12:20:58Z</time>
      </trkpt>
      <trkpt lat="44.81238" lon="6.95847">
        <ele>1817.99</ele>
        <time>2023-04-16T12:21:06Z</time>
      </trkpt>
      <trkpt lat="44.81241" lon="6.95834">
        <ele>1817.51</ele>
        <time>2023-04-16T12:21:14Z</time>
      </trkpt>
      <trkpt lat="44.81248" lon="6.95809">
        <ele>1817.03</ele>
        <time>2023-04-16T12:21:31Z</time>
      </trkpt>
      <trkpt lat="44.81251" lon="6.95788">
        <ele>1816.07</ele>
        <time>2023-04-16T12:21:45Z</time>
      </trkpt>
      <trkpt lat="44.81255" lon="6.95764">
        <ele>1814.63</ele>
        <time>2023-04-16T12:22:01Z</time>
      </trkpt>
      <trkpt lat="44.81253" lon="6.95743">
        <ele>1813.18</ele>
        <time>2023-04-16T12:22:16Z</time>
      </trkpt>
      <trkpt lat="44.81252" lon="6.95721">
        <ele>1811.26</ele>
        <time>2023-04-16T12:22:31Z</time>
      </trkpt>
      <trkpt lat="44.81248" lon="6.95694">
        <ele>1810.3</ele>
        <time>2023-04-16T12:22:49Z</time>
      </trkpt>
      <trkpt lat="44.81246" lon="6.95659">
        <ele>1809.82</ele>
        <time>2023-04-16T12:23:14Z</time>
      </trkpt>
      <trkpt lat="44.81248" lon="6.95641">
        <ele>1809.34</ele>
        <time>2023-04-16T12:23:25Z</time>
      </trkpt>
      <trkpt lat="44.81255" lon="6.95616">
        <ele>1808.38</ele>
        <time>2023-04-16T12:23:42Z</time>
      </trkpt>
      <trkpt lat="44.81265" lon="6.95597">
        <ele>1807.9</ele>
        <time>2023-04-16T12:23:58Z</time>
      </trkpt>
      <trkpt lat="44.81271" lon="6.95585">
        <ele>1807.9</ele>
        <time>2023-04-16T12:24:07Z</time>
      </trkpt>
      <trkpt lat="44.81282" lon="6.95559">
        <ele>1807.42</ele>
        <time>2023-04-16T12:24:26Z</time>
      </trkpt>
      <trkpt lat="44.81292" lon="6.9554">
        <ele>1806.94</ele>
        <time>2023-04-16T12:24:42Z</time>
      </trkpt>
      <trkpt lat="44.81295" lon="6.95525">
        <ele>1806.45</ele>
        <time>2023-04-16T12:24:53Z</time>
      </trkpt>
      <trkpt lat="44.813" lon="6.95508">
        <ele>1806.45</ele>
        <time>2023-04-16T12:25:05Z</time>
      </trkpt>
      <trkpt lat="44.81304" lon="6.95482">
        <ele>1805.97</ele>
        <time>2023-04-16T12:25:22Z</time>
      </trkpt>
      <trkpt lat="44.81309" lon="6.95463">
        <ele>1805.97</ele>
        <time>2023-04-16T12:25:37Z</time>
      </trkpt>
      <trkpt lat="44.81318" lon="6.95435">
        <ele>1805.01</ele>
        <time>2023-04-16T12:25:57Z</time>
      </trkpt>
      <trkpt lat="44.81328" lon="6.95411">
        <ele>1804.53</ele>
        <time>2023-04-16T12:26:16Z</time>
      </trkpt>
      <trkpt lat="44.81336" lon="6.95396">
        <ele>1804.53</ele>
        <time>2023-04-16T12:26:28Z</time>
      </trkpt>
      <trkpt lat="44.81351" lon="6.95378">
        <ele>1804.53</ele>
        <time>2023-04-16T12:26:47Z</time>
      </trkpt>
      <trkpt lat="44.8137" lon="6.95354">
        <ele>1803.57</ele>
        <time>2023-04-16T12:27:11Z</time>
      </trkpt>
      <trkpt lat="44.81378" lon="6.95341">
        <ele>1803.57</ele>
        <time>2023-04-16T12:27:23Z</time>
      </trkpt>
      <trkpt lat="44.81389" lon="6.95325">
        <ele>1803.57</ele>
        <time>2023-04-16T12:27:37Z</time>
      </trkpt>
      <trkpt lat="44.81403" lon="6.95308">
        <ele>1802.61</ele>
        <time>2023-04-16T12:27:53Z</time>
      </trkpt>
      <trkpt lat="44.81417" lon="6.95293">
        <ele>1802.61</ele>
        <time>2023-04-16T12:28:09Z</time>
      </trkpt>
      <trkpt lat="44.81433" lon="6.95275">
        <ele>1802.13</ele>
        <time>2023-04-16T12:28:28Z</time>
      </trkpt>
      <trkpt lat="44.81446" lon="6.95264">
        <ele>1802.13</ele>
        <time>2023-04-16T12:28:42Z</time>
      </trkpt>
      <trkpt lat="44.81456" lon="6.95251">
        <ele>1802.13</ele>
        <time>2023-04-16T12:28:55Z</time>
      </trkpt>
      <trkpt lat="44.81462" lon="6.9524">
        <ele>1802.13</ele>
        <time>2023-04-16T12:29:03Z</time>
      </trkpt>
      <trkpt lat="44.81471" lon="6.95212">
        <ele>1800.69</ele>
        <time>2023-04-16T12:29:23Z</time>
      </trkpt>
      <trkpt lat="44.81484" lon="6.95193">
        <ele>1799.24</ele>
        <time>2023-04-16T12:29:40Z</time>
      </trkpt>
      <trkpt lat="44.81499" lon="6.95178">
        <ele>1797.32</ele>
        <time>2023-04-16T12:29:57Z</time>
      </trkpt>
      <trkpt lat="44.81514" lon="6.95163">
        <ele>1795.88</ele>
        <time>2023-04-16T12:30:14Z</time>
      </trkpt>
      <trkpt lat="44.81526" lon="6.95145">
        <ele>1793</ele>
        <time>2023-04-16T12:30:31Z</time>
      </trkpt>
      <trkpt lat="44.81526" lon="6.95119">
        <ele>1790.59</ele>
        <time>2023-04-16T12:30:48Z</time>
      </trkpt>
      <trkpt lat="44.8153" lon="6.95105">
        <ele>1790.11</ele>
        <time>2023-04-16T12:30:57Z</time>
      </trkpt>
      <trkpt lat="44.81535" lon="6.95078">
        <ele>1788.67</ele>
        <time>2023-04-16T12:31:14Z</time>
      </trkpt>
      <trkpt lat="44.8154" lon="6.95054">
        <ele>1788.19</ele>
        <time>2023-04-16T12:31:30Z</time>
      </trkpt>
      <trkpt lat="44.81544" lon="6.9503">
        <ele>1786.27</ele>
        <time>2023-04-16T12:31:47Z</time>
      </trkpt>
      <trkpt lat="44.81548" lon="6.95005">
        <ele>1785.31</ele>
        <time>2023-04-16T12:32:04Z</time>
      </trkpt>
      <trkpt lat="44.81551" lon="6.94979">
        <ele>1784.34</ele>
        <time>2023-04-16T12:32:21Z</time>
      </trkpt>
      <trkpt lat="44.81552" lon="6.94955">
        <ele>1782.42</ele>
        <time>2023-04-16T12:32:37Z</time>
      </trkpt>
      <trkpt lat="44.81554" lon="6.94929">
        <ele>1780.98</ele>
        <time>2023-04-16T12:32:54Z</time>
      </trkpt>
      <trkpt lat="44.81557" lon="6.94917">
        <ele>1780.5</ele>
        <time>2023-04-16T12:33:02Z</time>
      </trkpt>
      <trkpt lat="44.81567" lon="6.9489">
        <ele>1778.58</ele>
        <time>2023-04-16T12:33:21Z</time>
      </trkpt>
      <trkpt lat="44.8157" lon="6.94865">
        <ele>1777.13</ele>
        <time>2023-04-16T12:33:37Z</time>
      </trkpt>
      <trkpt lat="44.81573" lon="6.94842">
        <ele>1776.17</ele>
        <time>2023-04-16T12:33:52Z</time>
      </trkpt>
      <trkpt lat="44.81584" lon="6.9482">
        <ele>1774.73</ele>
        <time>2023-04-16T12:34:08Z</time>
      </trkpt>
      <trkpt lat="44.81597" lon="6.94801">
        <ele>1773.29</ele>
        <time>2023-04-16T12:34:25Z</time>
      </trkpt>
      <trkpt lat="44.81609" lon="6.94776">
        <ele>1771.85</ele>
        <time>2023-04-16T12:34:43Z</time>
      </trkpt>
      <trkpt lat="44.81626" lon="6.94754">
        <ele>1770.41</ele>
        <time>2023-04-16T12:35:01Z</time>
      </trkpt>
      <trkpt lat="44.81638" lon="6.94731">
        <ele>1769.92</ele>
        <time>2023-04-16T12:35:19Z</time>
      </trkpt>
      <trkpt lat="44.81649" lon="6.94694">
        <ele>1769.44</ele>
        <time>2023-04-16T12:35:44Z</time>
      </trkpt>
      <trkpt lat="44.81667" lon="6.94674">
        <ele>1767.52</ele>
        <time>2023-04-16T12:36:05Z</time>
      </trkpt>
      <trkpt lat="44.81688" lon="6.94658">
        <ele>1766.56</ele>
        <time>2023-04-16T12:36:25Z</time>
      </trkpt>
      <trkpt lat="44.81704" lon="6.94641">
        <ele>1765.6</ele>
        <time>2023-04-16T12:36:43Z</time>
      </trkpt>
      <trkpt lat="44.81721" lon="6.94631">
        <ele>1764.16</ele>
        <time>2023-04-16T12:37:01Z</time>
      </trkpt>
      <trkpt lat="44.81741" lon="6.94618">
        <ele>1762.23</ele>
        <time>2023-04-16T12:37:21Z</time>
      </trkpt>
      <trkpt lat="44.81746" lon="6.94603">
        <ele>1761.75</ele>
        <time>2023-04-16T12:37:32Z</time>
      </trkpt>
      <trkpt lat="44.81764" lon="6.94574">
        <ele>1760.31</ele>
        <time>2023-04-16T12:37:57Z</time>
      </trkpt>
      <trkpt lat="44.81772" lon="6.94558">
        <ele>1759.83</ele>
        <time>2023-04-16T12:38:10Z</time>
      </trkpt>
      <trkpt lat="44.81787" lon="6.94526">
        <ele>1759.35</ele>
        <time>2023-04-16T12:38:35Z</time>
      </trkpt>
      <trkpt lat="44.818" lon="6.94508">
        <ele>1758.87</ele>
        <time>2023-04-16T12:38:52Z</time>
      </trkpt>
      <trkpt lat="44.81814" lon="6.94494">
        <ele>1758.39</ele>
        <time>2023-04-16T12:39:08Z</time>
      </trkpt>
      <trkpt lat="44.81823" lon="6.94487">
        <ele>1758.39</ele>
        <time>2023-04-16T12:39:22Z</time>
      </trkpt>
      <trkpt lat="44.81837" lon="6.94485">
        <ele>1757.91</ele>
        <time>2023-04-16T12:39:38Z</time>
      </trkpt>
      <trkpt lat="44.81851" lon="6.94478">
        <ele>1756.95</ele>
        <time>2023-04-16T12:39:56Z</time>
      </trkpt>
      <trkpt lat="44.81849" lon="6.94472">
        <ele>1755.02</ele>
        <time>2023-04-16T12:43:43Z</time>
      </trkpt>
      <trkpt lat="44.81848" lon="6.94473">
        <ele>1755.99</ele>
        <time>2023-04-16T12:45:33Z</time>
      </trkpt>
    </trkseg>
  </trk>
</gpx>